<?xml version="1.0" encoding="UTF-8" standalone="no" ?>
<gpx xmlns="http://www.topografix.com/GPX/1/1" xmlns:xsi="http://www.w3.org/2001/XMLSchema-instance" xsi:schemaLocation="http://www.topografix.com/GPX/1/1 http://www.topografix.com/GPX/1/1/gpx.xsd" version="1.1" creator="VisuGPX - https://www.visugpx.com">
  <metadata>
    <name>Iron Man ALPS MAN</name>
    <desc><![CDATA[grimpée du Semnoz course à pied]]></desc>
  </metadata>
  <trk>
    <name><![CDATA[OR-6615609--Saint-Jorioz:Alpsman Càp - Top Finishers]]></name>
    <trkseg>
      <trkpt lat="45.83535" lon="6.16546">
        <ele>463</ele>
        <time>2016-09-23T09:32:15Z</time>
      </trkpt>
      <trkpt lat="45.83541" lon="6.16534">
        <ele>463</ele>
        <time>2016-09-23T09:34:15Z</time>
      </trkpt>
      <trkpt lat="45.83566" lon="6.16481">
        <ele>461</ele>
        <time>2016-09-23T09:36:15Z</time>
      </trkpt>
      <trkpt lat="45.83566" lon="6.16481">
        <ele>461</ele>
        <time>2016-09-23T09:38:15Z</time>
      </trkpt>
      <trkpt lat="45.8356" lon="6.16463">
        <ele>461</ele>
        <time>2016-09-23T09:40:15Z</time>
      </trkpt>
      <trkpt lat="45.83547" lon="6.1643">
        <ele>462</ele>
        <time>2016-09-23T09:42:15Z</time>
      </trkpt>
      <trkpt lat="45.83525" lon="6.16374">
        <ele>463</ele>
        <time>2016-09-23T09:44:15Z</time>
      </trkpt>
      <trkpt lat="45.83522" lon="6.16367">
        <ele>463</ele>
        <time>2016-09-23T09:46:15Z</time>
      </trkpt>
      <trkpt lat="45.83515" lon="6.16352">
        <ele>464</ele>
        <time>2016-09-23T09:48:15Z</time>
      </trkpt>
      <trkpt lat="45.83491" lon="6.16292">
        <ele>464</ele>
        <time>2016-09-23T09:50:15Z</time>
      </trkpt>
      <trkpt lat="45.83488" lon="6.16286">
        <ele>464</ele>
        <time>2016-09-23T09:52:15Z</time>
      </trkpt>
      <trkpt lat="45.83486" lon="6.16281">
        <ele>463</ele>
        <time>2016-09-23T09:54:15Z</time>
      </trkpt>
      <trkpt lat="45.83463" lon="6.16239">
        <ele>464</ele>
        <time>2016-09-23T09:56:15Z</time>
      </trkpt>
      <trkpt lat="45.8346" lon="6.16235">
        <ele>464</ele>
        <time>2016-09-23T09:58:15Z</time>
      </trkpt>
      <trkpt lat="45.8346" lon="6.16235">
        <ele>464</ele>
        <time>2016-09-23T10:00:15Z</time>
      </trkpt>
      <trkpt lat="45.83458" lon="6.16232">
        <ele>464</ele>
        <time>2016-09-23T10:02:15Z</time>
      </trkpt>
      <trkpt lat="45.83457" lon="6.16229">
        <ele>464</ele>
        <time>2016-09-23T10:04:15Z</time>
      </trkpt>
      <trkpt lat="45.83456" lon="6.16222">
        <ele>464</ele>
        <time>2016-09-23T10:06:15Z</time>
      </trkpt>
      <trkpt lat="45.83456" lon="6.16217">
        <ele>464</ele>
        <time>2016-09-23T10:08:15Z</time>
      </trkpt>
      <trkpt lat="45.83456" lon="6.1621">
        <ele>464</ele>
        <time>2016-09-23T10:10:15Z</time>
      </trkpt>
      <trkpt lat="45.83458" lon="6.162">
        <ele>464</ele>
        <time>2016-09-23T10:12:15Z</time>
      </trkpt>
      <trkpt lat="45.83458" lon="6.162">
        <ele>464</ele>
        <time>2016-09-23T10:14:15Z</time>
      </trkpt>
      <trkpt lat="45.83445" lon="6.16195">
        <ele>465</ele>
        <time>2016-09-23T10:16:15Z</time>
      </trkpt>
      <trkpt lat="45.83441" lon="6.16196">
        <ele>465</ele>
        <time>2016-09-23T10:18:15Z</time>
      </trkpt>
      <trkpt lat="45.8343" lon="6.16205">
        <ele>465</ele>
        <time>2016-09-23T10:20:15Z</time>
      </trkpt>
      <trkpt lat="45.83417" lon="6.16211">
        <ele>465</ele>
        <time>2016-09-23T10:22:15Z</time>
      </trkpt>
      <trkpt lat="45.83408" lon="6.16213">
        <ele>465</ele>
        <time>2016-09-23T10:24:15Z</time>
      </trkpt>
      <trkpt lat="45.83401" lon="6.16214">
        <ele>465</ele>
        <time>2016-09-23T10:26:15Z</time>
      </trkpt>
      <trkpt lat="45.83401" lon="6.16214">
        <ele>465</ele>
        <time>2016-09-23T10:28:15Z</time>
      </trkpt>
      <trkpt lat="45.8339" lon="6.16193">
        <ele>466</ele>
        <time>2016-09-23T10:30:15Z</time>
      </trkpt>
      <trkpt lat="45.83379" lon="6.16172">
        <ele>466</ele>
        <time>2016-09-23T10:32:15Z</time>
      </trkpt>
      <trkpt lat="45.83372" lon="6.16159">
        <ele>466</ele>
        <time>2016-09-23T10:34:15Z</time>
      </trkpt>
      <trkpt lat="45.83369" lon="6.16156">
        <ele>466</ele>
        <time>2016-09-23T10:36:15Z</time>
      </trkpt>
      <trkpt lat="45.83352" lon="6.16142">
        <ele>466</ele>
        <time>2016-09-23T10:38:15Z</time>
      </trkpt>
      <trkpt lat="45.83326" lon="6.16124">
        <ele>466</ele>
        <time>2016-09-23T10:40:15Z</time>
      </trkpt>
      <trkpt lat="45.83324" lon="6.16122">
        <ele>466</ele>
        <time>2016-09-23T10:42:15Z</time>
      </trkpt>
      <trkpt lat="45.83322" lon="6.1612">
        <ele>466</ele>
        <time>2016-09-23T10:44:15Z</time>
      </trkpt>
      <trkpt lat="45.83321" lon="6.16117">
        <ele>466</ele>
        <time>2016-09-23T10:46:15Z</time>
      </trkpt>
      <trkpt lat="45.83316" lon="6.16095">
        <ele>467</ele>
        <time>2016-09-23T10:48:15Z</time>
      </trkpt>
      <trkpt lat="45.83308" lon="6.16065">
        <ele>467</ele>
        <time>2016-09-23T10:50:15Z</time>
      </trkpt>
      <trkpt lat="45.833" lon="6.16031">
        <ele>468</ele>
        <time>2016-09-23T10:52:15Z</time>
      </trkpt>
      <trkpt lat="45.83295" lon="6.16015">
        <ele>468</ele>
        <time>2016-09-23T10:54:15Z</time>
      </trkpt>
      <trkpt lat="45.83288" lon="6.15996">
        <ele>469</ele>
        <time>2016-09-23T10:56:15Z</time>
      </trkpt>
      <trkpt lat="45.83282" lon="6.15977">
        <ele>469</ele>
        <time>2016-09-23T10:58:15Z</time>
      </trkpt>
      <trkpt lat="45.83273" lon="6.1596">
        <ele>469</ele>
        <time>2016-09-23T11:00:15Z</time>
      </trkpt>
      <trkpt lat="45.83273" lon="6.1596">
        <ele>469</ele>
        <time>2016-09-23T11:02:15Z</time>
      </trkpt>
      <trkpt lat="45.83274" lon="6.15959">
        <ele>469</ele>
        <time>2016-09-23T11:04:15Z</time>
      </trkpt>
      <trkpt lat="45.83274" lon="6.15958">
        <ele>469</ele>
        <time>2016-09-23T11:06:15Z</time>
      </trkpt>
      <trkpt lat="45.83282" lon="6.15947">
        <ele>469</ele>
        <time>2016-09-23T11:08:15Z</time>
      </trkpt>
      <trkpt lat="45.83291" lon="6.1593">
        <ele>469</ele>
        <time>2016-09-23T11:10:15Z</time>
      </trkpt>
      <trkpt lat="45.83297" lon="6.15915">
        <ele>469</ele>
        <time>2016-09-23T11:12:15Z</time>
      </trkpt>
      <trkpt lat="45.833" lon="6.1591">
        <ele>469</ele>
        <time>2016-09-23T11:14:15Z</time>
      </trkpt>
      <trkpt lat="45.83306" lon="6.15908">
        <ele>469</ele>
        <time>2016-09-23T11:16:15Z</time>
      </trkpt>
      <trkpt lat="45.83306" lon="6.15908">
        <ele>469</ele>
        <time>2016-09-23T11:18:15Z</time>
      </trkpt>
      <trkpt lat="45.83306" lon="6.15903">
        <ele>469</ele>
        <time>2016-09-23T11:20:15Z</time>
      </trkpt>
      <trkpt lat="45.83308" lon="6.15897">
        <ele>469</ele>
        <time>2016-09-23T11:22:15Z</time>
      </trkpt>
      <trkpt lat="45.83311" lon="6.1589">
        <ele>469</ele>
        <time>2016-09-23T11:24:15Z</time>
      </trkpt>
      <trkpt lat="45.8332" lon="6.15871">
        <ele>469</ele>
        <time>2016-09-23T11:26:15Z</time>
      </trkpt>
      <trkpt lat="45.8332" lon="6.1587">
        <ele>469</ele>
        <time>2016-09-23T11:28:15Z</time>
      </trkpt>
      <trkpt lat="45.83324" lon="6.15863">
        <ele>469</ele>
        <time>2016-09-23T11:30:15Z</time>
      </trkpt>
      <trkpt lat="45.83329" lon="6.15852">
        <ele>469</ele>
        <time>2016-09-23T11:32:15Z</time>
      </trkpt>
      <trkpt lat="45.83339" lon="6.15833">
        <ele>469</ele>
        <time>2016-09-23T11:34:15Z</time>
      </trkpt>
      <trkpt lat="45.83342" lon="6.15826">
        <ele>469</ele>
        <time>2016-09-23T11:36:15Z</time>
      </trkpt>
      <trkpt lat="45.83348" lon="6.15817">
        <ele>469</ele>
        <time>2016-09-23T11:38:15Z</time>
      </trkpt>
      <trkpt lat="45.83356" lon="6.15801">
        <ele>469</ele>
        <time>2016-09-23T11:40:15Z</time>
      </trkpt>
      <trkpt lat="45.83369" lon="6.15774">
        <ele>469</ele>
        <time>2016-09-23T11:42:15Z</time>
      </trkpt>
      <trkpt lat="45.83375" lon="6.15758">
        <ele>469</ele>
        <time>2016-09-23T11:44:15Z</time>
      </trkpt>
      <trkpt lat="45.83378" lon="6.15745">
        <ele>469</ele>
        <time>2016-09-23T11:46:15Z</time>
      </trkpt>
      <trkpt lat="45.83382" lon="6.15738">
        <ele>469</ele>
        <time>2016-09-23T11:48:15Z</time>
      </trkpt>
      <trkpt lat="45.83382" lon="6.15738">
        <ele>469</ele>
        <time>2016-09-23T11:50:15Z</time>
      </trkpt>
      <trkpt lat="45.83381" lon="6.15738">
        <ele>469</ele>
        <time>2016-09-23T11:52:15Z</time>
      </trkpt>
      <trkpt lat="45.83381" lon="6.15737">
        <ele>469</ele>
        <time>2016-09-23T11:54:15Z</time>
      </trkpt>
      <trkpt lat="45.8338" lon="6.15736">
        <ele>469</ele>
        <time>2016-09-23T11:56:15Z</time>
      </trkpt>
      <trkpt lat="45.8338" lon="6.15735">
        <ele>469</ele>
        <time>2016-09-23T11:58:15Z</time>
      </trkpt>
      <trkpt lat="45.83379" lon="6.15735">
        <ele>469</ele>
        <time>2016-09-23T12:00:15Z</time>
      </trkpt>
      <trkpt lat="45.83379" lon="6.15734">
        <ele>469</ele>
        <time>2016-09-23T12:02:15Z</time>
      </trkpt>
      <trkpt lat="45.83379" lon="6.15733">
        <ele>469</ele>
        <time>2016-09-23T12:04:15Z</time>
      </trkpt>
      <trkpt lat="45.83379" lon="6.15732">
        <ele>469</ele>
        <time>2016-09-23T12:06:15Z</time>
      </trkpt>
      <trkpt lat="45.83379" lon="6.15731">
        <ele>469</ele>
        <time>2016-09-23T12:08:15Z</time>
      </trkpt>
      <trkpt lat="45.83378" lon="6.1573">
        <ele>469</ele>
        <time>2016-09-23T12:10:15Z</time>
      </trkpt>
      <trkpt lat="45.83378" lon="6.15729">
        <ele>469</ele>
        <time>2016-09-23T12:12:15Z</time>
      </trkpt>
      <trkpt lat="45.83379" lon="6.15729">
        <ele>469</ele>
        <time>2016-09-23T12:14:15Z</time>
      </trkpt>
      <trkpt lat="45.83379" lon="6.15728">
        <ele>469</ele>
        <time>2016-09-23T12:16:15Z</time>
      </trkpt>
      <trkpt lat="45.83379" lon="6.15727">
        <ele>469</ele>
        <time>2016-09-23T12:18:15Z</time>
      </trkpt>
      <trkpt lat="45.83379" lon="6.15726">
        <ele>469</ele>
        <time>2016-09-23T12:20:15Z</time>
      </trkpt>
      <trkpt lat="45.83379" lon="6.15725">
        <ele>469</ele>
        <time>2016-09-23T12:22:15Z</time>
      </trkpt>
      <trkpt lat="45.8338" lon="6.15725">
        <ele>469</ele>
        <time>2016-09-23T12:24:15Z</time>
      </trkpt>
      <trkpt lat="45.8338" lon="6.15724">
        <ele>469</ele>
        <time>2016-09-23T12:26:15Z</time>
      </trkpt>
      <trkpt lat="45.8338" lon="6.15723">
        <ele>469</ele>
        <time>2016-09-23T12:28:15Z</time>
      </trkpt>
      <trkpt lat="45.83381" lon="6.15723">
        <ele>469</ele>
        <time>2016-09-23T12:30:15Z</time>
      </trkpt>
      <trkpt lat="45.83381" lon="6.15722">
        <ele>469</ele>
        <time>2016-09-23T12:32:15Z</time>
      </trkpt>
      <trkpt lat="45.83379" lon="6.15715">
        <ele>469</ele>
        <time>2016-09-23T12:34:15Z</time>
      </trkpt>
      <trkpt lat="45.83376" lon="6.15709">
        <ele>469</ele>
        <time>2016-09-23T12:36:15Z</time>
      </trkpt>
      <trkpt lat="45.83371" lon="6.15702">
        <ele>469</ele>
        <time>2016-09-23T12:38:15Z</time>
      </trkpt>
      <trkpt lat="45.83361" lon="6.1569">
        <ele>469</ele>
        <time>2016-09-23T12:40:15Z</time>
      </trkpt>
      <trkpt lat="45.83351" lon="6.15677">
        <ele>469</ele>
        <time>2016-09-23T12:42:15Z</time>
      </trkpt>
      <trkpt lat="45.8334" lon="6.15664">
        <ele>470</ele>
        <time>2016-09-23T12:44:15Z</time>
      </trkpt>
      <trkpt lat="45.83328" lon="6.15649">
        <ele>470</ele>
        <time>2016-09-23T12:46:15Z</time>
      </trkpt>
      <trkpt lat="45.83307" lon="6.15625">
        <ele>471</ele>
        <time>2016-09-23T12:48:15Z</time>
      </trkpt>
      <trkpt lat="45.83286" lon="6.15601">
        <ele>471</ele>
        <time>2016-09-23T12:50:15Z</time>
      </trkpt>
      <trkpt lat="45.83261" lon="6.15574">
        <ele>472</ele>
        <time>2016-09-23T12:52:15Z</time>
      </trkpt>
      <trkpt lat="45.83236" lon="6.15546">
        <ele>472</ele>
        <time>2016-09-23T12:54:15Z</time>
      </trkpt>
      <trkpt lat="45.8321" lon="6.15518">
        <ele>473</ele>
        <time>2016-09-23T12:56:15Z</time>
      </trkpt>
      <trkpt lat="45.8318" lon="6.15489">
        <ele>474</ele>
        <time>2016-09-23T12:58:15Z</time>
      </trkpt>
      <trkpt lat="45.83148" lon="6.15457">
        <ele>476</ele>
        <time>2016-09-23T13:00:15Z</time>
      </trkpt>
      <trkpt lat="45.83147" lon="6.15456">
        <ele>476</ele>
        <time>2016-09-23T13:02:15Z</time>
      </trkpt>
      <trkpt lat="45.83139" lon="6.15448">
        <ele>477</ele>
        <time>2016-09-23T13:04:15Z</time>
      </trkpt>
      <trkpt lat="45.83116" lon="6.15432">
        <ele>478</ele>
        <time>2016-09-23T13:06:15Z</time>
      </trkpt>
      <trkpt lat="45.83092" lon="6.15416">
        <ele>479</ele>
        <time>2016-09-23T13:08:15Z</time>
      </trkpt>
      <trkpt lat="45.83077" lon="6.15405">
        <ele>479</ele>
        <time>2016-09-23T13:10:15Z</time>
      </trkpt>
      <trkpt lat="45.8306" lon="6.1539">
        <ele>480</ele>
        <time>2016-09-23T13:12:15Z</time>
      </trkpt>
      <trkpt lat="45.83056" lon="6.15386">
        <ele>480</ele>
        <time>2016-09-23T13:14:15Z</time>
      </trkpt>
      <trkpt lat="45.83032" lon="6.1536">
        <ele>481</ele>
        <time>2016-09-23T13:16:15Z</time>
      </trkpt>
      <trkpt lat="45.83014" lon="6.15338">
        <ele>482</ele>
        <time>2016-09-23T13:18:15Z</time>
      </trkpt>
      <trkpt lat="45.82999" lon="6.1532">
        <ele>484</ele>
        <time>2016-09-23T13:20:15Z</time>
      </trkpt>
      <trkpt lat="45.82995" lon="6.15315">
        <ele>484</ele>
        <time>2016-09-23T13:22:15Z</time>
      </trkpt>
      <trkpt lat="45.82972" lon="6.15287">
        <ele>486</ele>
        <time>2016-09-23T13:24:15Z</time>
      </trkpt>
      <trkpt lat="45.82964" lon="6.15278">
        <ele>486</ele>
        <time>2016-09-23T13:26:15Z</time>
      </trkpt>
      <trkpt lat="45.82943" lon="6.15257">
        <ele>488</ele>
        <time>2016-09-23T13:28:15Z</time>
      </trkpt>
      <trkpt lat="45.82922" lon="6.15231">
        <ele>489</ele>
        <time>2016-09-23T13:30:15Z</time>
      </trkpt>
      <trkpt lat="45.82899" lon="6.15204">
        <ele>490</ele>
        <time>2016-09-23T13:32:15Z</time>
      </trkpt>
      <trkpt lat="45.82887" lon="6.15188">
        <ele>491</ele>
        <time>2016-09-23T13:34:15Z</time>
      </trkpt>
      <trkpt lat="45.82887" lon="6.15188">
        <ele>491</ele>
        <time>2016-09-23T13:36:15Z</time>
      </trkpt>
      <trkpt lat="45.82852" lon="6.15194">
        <ele>491</ele>
        <time>2016-09-23T13:38:15Z</time>
      </trkpt>
      <trkpt lat="45.82811" lon="6.15198">
        <ele>491</ele>
        <time>2016-09-23T13:40:15Z</time>
      </trkpt>
      <trkpt lat="45.82773" lon="6.15202">
        <ele>491</ele>
        <time>2016-09-23T13:42:15Z</time>
      </trkpt>
      <trkpt lat="45.8277" lon="6.15202">
        <ele>491</ele>
        <time>2016-09-23T13:44:15Z</time>
      </trkpt>
      <trkpt lat="45.82766" lon="6.15202">
        <ele>491</ele>
        <time>2016-09-23T13:46:15Z</time>
      </trkpt>
      <trkpt lat="45.82761" lon="6.15201">
        <ele>491</ele>
        <time>2016-09-23T13:48:15Z</time>
      </trkpt>
      <trkpt lat="45.82757" lon="6.152">
        <ele>491</ele>
        <time>2016-09-23T13:50:15Z</time>
      </trkpt>
      <trkpt lat="45.82748" lon="6.15197">
        <ele>491</ele>
        <time>2016-09-23T13:52:15Z</time>
      </trkpt>
      <trkpt lat="45.82713" lon="6.15182">
        <ele>491</ele>
        <time>2016-09-23T13:54:15Z</time>
      </trkpt>
      <trkpt lat="45.82683" lon="6.15169">
        <ele>490</ele>
        <time>2016-09-23T13:56:15Z</time>
      </trkpt>
      <trkpt lat="45.82651" lon="6.15155">
        <ele>491</ele>
        <time>2016-09-23T13:58:15Z</time>
      </trkpt>
      <trkpt lat="45.82626" lon="6.15143">
        <ele>492</ele>
        <time>2016-09-23T14:00:15Z</time>
      </trkpt>
      <trkpt lat="45.82624" lon="6.15142">
        <ele>492</ele>
        <time>2016-09-23T14:02:15Z</time>
      </trkpt>
      <trkpt lat="45.82621" lon="6.1514">
        <ele>493</ele>
        <time>2016-09-23T14:04:15Z</time>
      </trkpt>
      <trkpt lat="45.82614" lon="6.15135">
        <ele>493</ele>
        <time>2016-09-23T14:06:15Z</time>
      </trkpt>
      <trkpt lat="45.82594" lon="6.15119">
        <ele>494</ele>
        <time>2016-09-23T14:08:15Z</time>
      </trkpt>
      <trkpt lat="45.82588" lon="6.15118">
        <ele>495</ele>
        <time>2016-09-23T14:10:15Z</time>
      </trkpt>
      <trkpt lat="45.82586" lon="6.15117">
        <ele>495</ele>
        <time>2016-09-23T14:12:15Z</time>
      </trkpt>
      <trkpt lat="45.82583" lon="6.15118">
        <ele>495</ele>
        <time>2016-09-23T14:14:15Z</time>
      </trkpt>
      <trkpt lat="45.82579" lon="6.15121">
        <ele>495</ele>
        <time>2016-09-23T14:16:15Z</time>
      </trkpt>
      <trkpt lat="45.82579" lon="6.15121">
        <ele>495</ele>
        <time>2016-09-23T14:18:15Z</time>
      </trkpt>
      <trkpt lat="45.82575" lon="6.15111">
        <ele>495</ele>
        <time>2016-09-23T14:20:15Z</time>
      </trkpt>
      <trkpt lat="45.82547" lon="6.15081">
        <ele>497</ele>
        <time>2016-09-23T14:22:15Z</time>
      </trkpt>
      <trkpt lat="45.82529" lon="6.15064">
        <ele>498</ele>
        <time>2016-09-23T14:24:15Z</time>
      </trkpt>
      <trkpt lat="45.82519" lon="6.15055">
        <ele>498</ele>
        <time>2016-09-23T14:26:15Z</time>
      </trkpt>
      <trkpt lat="45.82517" lon="6.1505">
        <ele>499</ele>
        <time>2016-09-23T14:28:15Z</time>
      </trkpt>
      <trkpt lat="45.82517" lon="6.1505">
        <ele>499</ele>
        <time>2016-09-23T14:30:15Z</time>
      </trkpt>
      <trkpt lat="45.82514" lon="6.1505">
        <ele>499</ele>
        <time>2016-09-23T14:32:15Z</time>
      </trkpt>
      <trkpt lat="45.82504" lon="6.15045">
        <ele>499</ele>
        <time>2016-09-23T14:34:15Z</time>
      </trkpt>
      <trkpt lat="45.82494" lon="6.15037">
        <ele>499</ele>
        <time>2016-09-23T14:36:15Z</time>
      </trkpt>
      <trkpt lat="45.82484" lon="6.15027">
        <ele>500</ele>
        <time>2016-09-23T14:38:15Z</time>
      </trkpt>
      <trkpt lat="45.82467" lon="6.15007">
        <ele>500</ele>
        <time>2016-09-23T14:40:15Z</time>
      </trkpt>
      <trkpt lat="45.82457" lon="6.14994">
        <ele>500</ele>
        <time>2016-09-23T14:42:15Z</time>
      </trkpt>
      <trkpt lat="45.8245" lon="6.14987">
        <ele>500</ele>
        <time>2016-09-23T14:44:15Z</time>
      </trkpt>
      <trkpt lat="45.82441" lon="6.1498">
        <ele>500</ele>
        <time>2016-09-23T14:46:15Z</time>
      </trkpt>
      <trkpt lat="45.82425" lon="6.1497">
        <ele>501</ele>
        <time>2016-09-23T14:48:15Z</time>
      </trkpt>
      <trkpt lat="45.82413" lon="6.14963">
        <ele>501</ele>
        <time>2016-09-23T14:50:15Z</time>
      </trkpt>
      <trkpt lat="45.82402" lon="6.14954">
        <ele>502</ele>
        <time>2016-09-23T14:52:15Z</time>
      </trkpt>
      <trkpt lat="45.82398" lon="6.14949">
        <ele>502</ele>
        <time>2016-09-23T14:54:15Z</time>
      </trkpt>
      <trkpt lat="45.82394" lon="6.14939">
        <ele>503</ele>
        <time>2016-09-23T14:56:15Z</time>
      </trkpt>
      <trkpt lat="45.82387" lon="6.14924">
        <ele>504</ele>
        <time>2016-09-23T14:58:15Z</time>
      </trkpt>
      <trkpt lat="45.82379" lon="6.14906">
        <ele>505</ele>
        <time>2016-09-23T15:00:15Z</time>
      </trkpt>
      <trkpt lat="45.82375" lon="6.1489">
        <ele>506</ele>
        <time>2016-09-23T15:02:15Z</time>
      </trkpt>
      <trkpt lat="45.82372" lon="6.1487">
        <ele>506</ele>
        <time>2016-09-23T15:04:15Z</time>
      </trkpt>
      <trkpt lat="45.8237" lon="6.14858">
        <ele>507</ele>
        <time>2016-09-23T15:06:15Z</time>
      </trkpt>
      <trkpt lat="45.82364" lon="6.1484">
        <ele>507</ele>
        <time>2016-09-23T15:08:15Z</time>
      </trkpt>
      <trkpt lat="45.82362" lon="6.14826">
        <ele>508</ele>
        <time>2016-09-23T15:10:15Z</time>
      </trkpt>
      <trkpt lat="45.82359" lon="6.14806">
        <ele>510</ele>
        <time>2016-09-23T15:12:15Z</time>
      </trkpt>
      <trkpt lat="45.82357" lon="6.14786">
        <ele>513</ele>
        <time>2016-09-23T15:14:15Z</time>
      </trkpt>
      <trkpt lat="45.82355" lon="6.14774">
        <ele>514</ele>
        <time>2016-09-23T15:16:15Z</time>
      </trkpt>
      <trkpt lat="45.82349" lon="6.14758">
        <ele>515</ele>
        <time>2016-09-23T15:18:15Z</time>
      </trkpt>
      <trkpt lat="45.82342" lon="6.14742">
        <ele>515</ele>
        <time>2016-09-23T15:20:15Z</time>
      </trkpt>
      <trkpt lat="45.82337" lon="6.14733">
        <ele>516</ele>
        <time>2016-09-23T15:22:15Z</time>
      </trkpt>
      <trkpt lat="45.82327" lon="6.1471">
        <ele>518</ele>
        <time>2016-09-23T15:24:15Z</time>
      </trkpt>
      <trkpt lat="45.82319" lon="6.14689">
        <ele>520</ele>
        <time>2016-09-23T15:26:15Z</time>
      </trkpt>
      <trkpt lat="45.82313" lon="6.14676">
        <ele>521</ele>
        <time>2016-09-23T15:28:15Z</time>
      </trkpt>
      <trkpt lat="45.82306" lon="6.1466">
        <ele>522</ele>
        <time>2016-09-23T15:30:15Z</time>
      </trkpt>
      <trkpt lat="45.823" lon="6.14652">
        <ele>523</ele>
        <time>2016-09-23T15:32:15Z</time>
      </trkpt>
      <trkpt lat="45.82289" lon="6.14636">
        <ele>524</ele>
        <time>2016-09-23T15:34:15Z</time>
      </trkpt>
      <trkpt lat="45.82284" lon="6.14629">
        <ele>524</ele>
        <time>2016-09-23T15:36:15Z</time>
      </trkpt>
      <trkpt lat="45.8228" lon="6.14618">
        <ele>525</ele>
        <time>2016-09-23T15:38:15Z</time>
      </trkpt>
      <trkpt lat="45.82275" lon="6.14601">
        <ele>526</ele>
        <time>2016-09-23T15:40:15Z</time>
      </trkpt>
      <trkpt lat="45.82273" lon="6.14594">
        <ele>527</ele>
        <time>2016-09-23T15:42:15Z</time>
      </trkpt>
      <trkpt lat="45.82269" lon="6.14588">
        <ele>527</ele>
        <time>2016-09-23T15:44:15Z</time>
      </trkpt>
      <trkpt lat="45.82263" lon="6.14581">
        <ele>527</ele>
        <time>2016-09-23T15:46:15Z</time>
      </trkpt>
      <trkpt lat="45.82258" lon="6.14573">
        <ele>527</ele>
        <time>2016-09-23T15:48:15Z</time>
      </trkpt>
      <trkpt lat="45.82253" lon="6.14562">
        <ele>527</ele>
        <time>2016-09-23T15:50:15Z</time>
      </trkpt>
      <trkpt lat="45.8225" lon="6.14547">
        <ele>528</ele>
        <time>2016-09-23T15:52:15Z</time>
      </trkpt>
      <trkpt lat="45.82247" lon="6.14528">
        <ele>530</ele>
        <time>2016-09-23T15:54:15Z</time>
      </trkpt>
      <trkpt lat="45.82241" lon="6.1451">
        <ele>533</ele>
        <time>2016-09-23T15:56:15Z</time>
      </trkpt>
      <trkpt lat="45.82229" lon="6.1448">
        <ele>537</ele>
        <time>2016-09-23T15:58:15Z</time>
      </trkpt>
      <trkpt lat="45.82223" lon="6.14461">
        <ele>538</ele>
        <time>2016-09-23T16:00:15Z</time>
      </trkpt>
      <trkpt lat="45.82218" lon="6.14445">
        <ele>539</ele>
        <time>2016-09-23T16:02:15Z</time>
      </trkpt>
      <trkpt lat="45.82215" lon="6.14424">
        <ele>539</ele>
        <time>2016-09-23T16:04:15Z</time>
      </trkpt>
      <trkpt lat="45.8221" lon="6.14412">
        <ele>539</ele>
        <time>2016-09-23T16:06:15Z</time>
      </trkpt>
      <trkpt lat="45.82201" lon="6.14397">
        <ele>541</ele>
        <time>2016-09-23T16:08:15Z</time>
      </trkpt>
      <trkpt lat="45.82195" lon="6.14385">
        <ele>541</ele>
        <time>2016-09-23T16:10:15Z</time>
      </trkpt>
      <trkpt lat="45.8219" lon="6.14373">
        <ele>542</ele>
        <time>2016-09-23T16:12:15Z</time>
      </trkpt>
      <trkpt lat="45.82187" lon="6.14356">
        <ele>543</ele>
        <time>2016-09-23T16:14:15Z</time>
      </trkpt>
      <trkpt lat="45.82185" lon="6.14346">
        <ele>543</ele>
        <time>2016-09-23T16:16:15Z</time>
      </trkpt>
      <trkpt lat="45.82185" lon="6.14335">
        <ele>544</ele>
        <time>2016-09-23T16:18:15Z</time>
      </trkpt>
      <trkpt lat="45.82182" lon="6.14325">
        <ele>545</ele>
        <time>2016-09-23T16:20:15Z</time>
      </trkpt>
      <trkpt lat="45.82177" lon="6.14314">
        <ele>546</ele>
        <time>2016-09-23T16:22:15Z</time>
      </trkpt>
      <trkpt lat="45.82166" lon="6.14299">
        <ele>547</ele>
        <time>2016-09-23T16:24:15Z</time>
      </trkpt>
      <trkpt lat="45.8216" lon="6.14283">
        <ele>551</ele>
        <time>2016-09-23T16:26:15Z</time>
      </trkpt>
      <trkpt lat="45.82153" lon="6.14269">
        <ele>553</ele>
        <time>2016-09-23T16:28:15Z</time>
      </trkpt>
      <trkpt lat="45.82144" lon="6.14256">
        <ele>554</ele>
        <time>2016-09-23T16:30:15Z</time>
      </trkpt>
      <trkpt lat="45.82134" lon="6.14242">
        <ele>555</ele>
        <time>2016-09-23T16:32:15Z</time>
      </trkpt>
      <trkpt lat="45.82119" lon="6.14226">
        <ele>556</ele>
        <time>2016-09-23T16:34:15Z</time>
      </trkpt>
      <trkpt lat="45.82104" lon="6.14211">
        <ele>556</ele>
        <time>2016-09-23T16:36:15Z</time>
      </trkpt>
      <trkpt lat="45.82092" lon="6.14197">
        <ele>556</ele>
        <time>2016-09-23T16:38:15Z</time>
      </trkpt>
      <trkpt lat="45.82081" lon="6.14182">
        <ele>557</ele>
        <time>2016-09-23T16:40:15Z</time>
      </trkpt>
      <trkpt lat="45.82078" lon="6.14174">
        <ele>558</ele>
        <time>2016-09-23T16:42:15Z</time>
      </trkpt>
      <trkpt lat="45.82078" lon="6.14159">
        <ele>560</ele>
        <time>2016-09-23T16:44:15Z</time>
      </trkpt>
      <trkpt lat="45.82076" lon="6.14154">
        <ele>561</ele>
        <time>2016-09-23T16:46:15Z</time>
      </trkpt>
      <trkpt lat="45.82072" lon="6.14146">
        <ele>562</ele>
        <time>2016-09-23T16:48:15Z</time>
      </trkpt>
      <trkpt lat="45.82067" lon="6.14136">
        <ele>564</ele>
        <time>2016-09-23T16:50:15Z</time>
      </trkpt>
      <trkpt lat="45.82067" lon="6.14136">
        <ele>564</ele>
        <time>2016-09-23T16:52:15Z</time>
      </trkpt>
      <trkpt lat="45.82064" lon="6.14139">
        <ele>565</ele>
        <time>2016-09-23T16:54:15Z</time>
      </trkpt>
      <trkpt lat="45.82055" lon="6.14156">
        <ele>564</ele>
        <time>2016-09-23T16:56:15Z</time>
      </trkpt>
      <trkpt lat="45.82049" lon="6.14176">
        <ele>564</ele>
        <time>2016-09-23T16:58:15Z</time>
      </trkpt>
      <trkpt lat="45.82045" lon="6.14204">
        <ele>564</ele>
        <time>2016-09-23T17:00:15Z</time>
      </trkpt>
      <trkpt lat="45.82042" lon="6.14248">
        <ele>562</ele>
        <time>2016-09-23T17:02:15Z</time>
      </trkpt>
      <trkpt lat="45.82039" lon="6.14321">
        <ele>569</ele>
        <time>2016-09-23T17:04:15Z</time>
      </trkpt>
      <trkpt lat="45.8204" lon="6.14351">
        <ele>571</ele>
        <time>2016-09-23T17:06:15Z</time>
      </trkpt>
      <trkpt lat="45.82039" lon="6.14354">
        <ele>571</ele>
        <time>2016-09-23T17:08:15Z</time>
      </trkpt>
      <trkpt lat="45.82036" lon="6.14354">
        <ele>572</ele>
        <time>2016-09-23T17:10:15Z</time>
      </trkpt>
      <trkpt lat="45.82028" lon="6.14345">
        <ele>573</ele>
        <time>2016-09-23T17:12:15Z</time>
      </trkpt>
      <trkpt lat="45.82001" lon="6.14318">
        <ele>578</ele>
        <time>2016-09-23T17:14:15Z</time>
      </trkpt>
      <trkpt lat="45.81976" lon="6.1431">
        <ele>582</ele>
        <time>2016-09-23T17:16:15Z</time>
      </trkpt>
      <trkpt lat="45.81954" lon="6.14309">
        <ele>586</ele>
        <time>2016-09-23T17:18:15Z</time>
      </trkpt>
      <trkpt lat="45.81953" lon="6.14308">
        <ele>586</ele>
        <time>2016-09-23T17:20:15Z</time>
      </trkpt>
      <trkpt lat="45.81951" lon="6.14306">
        <ele>587</ele>
        <time>2016-09-23T17:22:15Z</time>
      </trkpt>
      <trkpt lat="45.8195" lon="6.14274">
        <ele>589</ele>
        <time>2016-09-23T17:24:15Z</time>
      </trkpt>
      <trkpt lat="45.81948" lon="6.14242">
        <ele>591</ele>
        <time>2016-09-23T17:26:15Z</time>
      </trkpt>
      <trkpt lat="45.81947" lon="6.14238">
        <ele>591</ele>
        <time>2016-09-23T17:28:15Z</time>
      </trkpt>
      <trkpt lat="45.81945" lon="6.14235">
        <ele>592</ele>
        <time>2016-09-23T17:30:15Z</time>
      </trkpt>
      <trkpt lat="45.81927" lon="6.14224">
        <ele>598</ele>
        <time>2016-09-23T17:32:15Z</time>
      </trkpt>
      <trkpt lat="45.81911" lon="6.14212">
        <ele>603</ele>
        <time>2016-09-23T17:34:15Z</time>
      </trkpt>
      <trkpt lat="45.81899" lon="6.1419">
        <ele>606</ele>
        <time>2016-09-23T17:36:15Z</time>
      </trkpt>
      <trkpt lat="45.81892" lon="6.14174">
        <ele>607</ele>
        <time>2016-09-23T17:38:15Z</time>
      </trkpt>
      <trkpt lat="45.8189" lon="6.1417">
        <ele>608</ele>
        <time>2016-09-23T17:40:15Z</time>
      </trkpt>
      <trkpt lat="45.81887" lon="6.1417">
        <ele>609</ele>
        <time>2016-09-23T17:42:15Z</time>
      </trkpt>
      <trkpt lat="45.81881" lon="6.14169">
        <ele>610</ele>
        <time>2016-09-23T17:44:15Z</time>
      </trkpt>
      <trkpt lat="45.81862" lon="6.14164">
        <ele>615</ele>
        <time>2016-09-23T17:46:15Z</time>
      </trkpt>
      <trkpt lat="45.81836" lon="6.14153">
        <ele>621</ele>
        <time>2016-09-23T17:48:15Z</time>
      </trkpt>
      <trkpt lat="45.81812" lon="6.14133">
        <ele>625</ele>
        <time>2016-09-23T17:50:15Z</time>
      </trkpt>
      <trkpt lat="45.81797" lon="6.14119">
        <ele>627</ele>
        <time>2016-09-23T17:52:15Z</time>
      </trkpt>
      <trkpt lat="45.81793" lon="6.14119">
        <ele>628</ele>
        <time>2016-09-23T17:54:15Z</time>
      </trkpt>
      <trkpt lat="45.81789" lon="6.14123">
        <ele>629</ele>
        <time>2016-09-23T17:56:15Z</time>
      </trkpt>
      <trkpt lat="45.81784" lon="6.14136">
        <ele>630</ele>
        <time>2016-09-23T17:58:15Z</time>
      </trkpt>
      <trkpt lat="45.81782" lon="6.14137">
        <ele>630</ele>
        <time>2016-09-23T18:00:15Z</time>
      </trkpt>
      <trkpt lat="45.8178" lon="6.14136">
        <ele>631</ele>
        <time>2016-09-23T18:02:15Z</time>
      </trkpt>
      <trkpt lat="45.81774" lon="6.14126">
        <ele>632</ele>
        <time>2016-09-23T18:04:15Z</time>
      </trkpt>
      <trkpt lat="45.81761" lon="6.14107">
        <ele>635</ele>
        <time>2016-09-23T18:06:15Z</time>
      </trkpt>
      <trkpt lat="45.81752" lon="6.14103">
        <ele>637</ele>
        <time>2016-09-23T18:08:15Z</time>
      </trkpt>
      <trkpt lat="45.81735" lon="6.14106">
        <ele>639</ele>
        <time>2016-09-23T18:10:15Z</time>
      </trkpt>
      <trkpt lat="45.81706" lon="6.14106">
        <ele>642</ele>
        <time>2016-09-23T18:12:15Z</time>
      </trkpt>
      <trkpt lat="45.8168" lon="6.14099">
        <ele>646</ele>
        <time>2016-09-23T18:14:15Z</time>
      </trkpt>
      <trkpt lat="45.81676" lon="6.14097">
        <ele>647</ele>
        <time>2016-09-23T18:16:15Z</time>
      </trkpt>
      <trkpt lat="45.8167" lon="6.14096">
        <ele>648</ele>
        <time>2016-09-23T18:18:15Z</time>
      </trkpt>
      <trkpt lat="45.81653" lon="6.14092">
        <ele>646</ele>
        <time>2016-09-23T18:20:15Z</time>
      </trkpt>
      <trkpt lat="45.81633" lon="6.14085">
        <ele>644</ele>
        <time>2016-09-23T18:22:15Z</time>
      </trkpt>
      <trkpt lat="45.81625" lon="6.14082">
        <ele>643</ele>
        <time>2016-09-23T18:24:15Z</time>
      </trkpt>
      <trkpt lat="45.81615" lon="6.14082">
        <ele>641</ele>
        <time>2016-09-23T18:26:15Z</time>
      </trkpt>
      <trkpt lat="45.81606" lon="6.1408">
        <ele>640</ele>
        <time>2016-09-23T18:28:15Z</time>
      </trkpt>
      <trkpt lat="45.81594" lon="6.14078">
        <ele>638</ele>
        <time>2016-09-23T18:30:15Z</time>
      </trkpt>
      <trkpt lat="45.81588" lon="6.14076">
        <ele>638</ele>
        <time>2016-09-23T18:32:15Z</time>
      </trkpt>
      <trkpt lat="45.81576" lon="6.1407">
        <ele>638</ele>
        <time>2016-09-23T18:34:15Z</time>
      </trkpt>
      <trkpt lat="45.8157" lon="6.14067">
        <ele>639</ele>
        <time>2016-09-23T18:36:15Z</time>
      </trkpt>
      <trkpt lat="45.81565" lon="6.14067">
        <ele>638</ele>
        <time>2016-09-23T18:38:15Z</time>
      </trkpt>
      <trkpt lat="45.81559" lon="6.14068">
        <ele>638</ele>
        <time>2016-09-23T18:40:15Z</time>
      </trkpt>
      <trkpt lat="45.81554" lon="6.14068">
        <ele>637</ele>
        <time>2016-09-23T18:42:15Z</time>
      </trkpt>
      <trkpt lat="45.81546" lon="6.14066">
        <ele>637</ele>
        <time>2016-09-23T18:44:15Z</time>
      </trkpt>
      <trkpt lat="45.81535" lon="6.14061">
        <ele>638</ele>
        <time>2016-09-23T18:46:15Z</time>
      </trkpt>
      <trkpt lat="45.81527" lon="6.1406">
        <ele>638</ele>
        <time>2016-09-23T18:48:15Z</time>
      </trkpt>
      <trkpt lat="45.81511" lon="6.14054">
        <ele>639</ele>
        <time>2016-09-23T18:50:15Z</time>
      </trkpt>
      <trkpt lat="45.81496" lon="6.1405">
        <ele>640</ele>
        <time>2016-09-23T18:52:15Z</time>
      </trkpt>
      <trkpt lat="45.81491" lon="6.14047">
        <ele>641</ele>
        <time>2016-09-23T18:54:15Z</time>
      </trkpt>
      <trkpt lat="45.8148" lon="6.1404">
        <ele>643</ele>
        <time>2016-09-23T18:56:15Z</time>
      </trkpt>
      <trkpt lat="45.81474" lon="6.14038">
        <ele>644</ele>
        <time>2016-09-23T18:58:15Z</time>
      </trkpt>
      <trkpt lat="45.8147" lon="6.14039">
        <ele>644</ele>
        <time>2016-09-23T19:00:15Z</time>
      </trkpt>
      <trkpt lat="45.81467" lon="6.14045">
        <ele>642</ele>
        <time>2016-09-23T19:02:15Z</time>
      </trkpt>
      <trkpt lat="45.8146" lon="6.1405">
        <ele>640</ele>
        <time>2016-09-23T19:04:15Z</time>
      </trkpt>
      <trkpt lat="45.81453" lon="6.14051">
        <ele>640</ele>
        <time>2016-09-23T19:06:15Z</time>
      </trkpt>
      <trkpt lat="45.81442" lon="6.1405">
        <ele>640</ele>
        <time>2016-09-23T19:08:15Z</time>
      </trkpt>
      <trkpt lat="45.81427" lon="6.14047">
        <ele>641</ele>
        <time>2016-09-23T19:10:15Z</time>
      </trkpt>
      <trkpt lat="45.81415" lon="6.14045">
        <ele>641</ele>
        <time>2016-09-23T19:12:15Z</time>
      </trkpt>
      <trkpt lat="45.81406" lon="6.14042">
        <ele>642</ele>
        <time>2016-09-23T19:14:15Z</time>
      </trkpt>
      <trkpt lat="45.81402" lon="6.14038">
        <ele>644</ele>
        <time>2016-09-23T19:16:15Z</time>
      </trkpt>
      <trkpt lat="45.814" lon="6.14034">
        <ele>645</ele>
        <time>2016-09-23T19:18:15Z</time>
      </trkpt>
      <trkpt lat="45.81396" lon="6.14032">
        <ele>646</ele>
        <time>2016-09-23T19:20:15Z</time>
      </trkpt>
      <trkpt lat="45.8139" lon="6.14032">
        <ele>646</ele>
        <time>2016-09-23T19:22:15Z</time>
      </trkpt>
      <trkpt lat="45.81377" lon="6.14037">
        <ele>644</ele>
        <time>2016-09-23T19:24:15Z</time>
      </trkpt>
      <trkpt lat="45.81363" lon="6.14041">
        <ele>642</ele>
        <time>2016-09-23T19:26:15Z</time>
      </trkpt>
      <trkpt lat="45.81345" lon="6.14043">
        <ele>642</ele>
        <time>2016-09-23T19:28:15Z</time>
      </trkpt>
      <trkpt lat="45.81324" lon="6.14042">
        <ele>641</ele>
        <time>2016-09-23T19:30:15Z</time>
      </trkpt>
      <trkpt lat="45.813" lon="6.14041">
        <ele>639</ele>
        <time>2016-09-23T19:32:15Z</time>
      </trkpt>
      <trkpt lat="45.81285" lon="6.14039">
        <ele>638</ele>
        <time>2016-09-23T19:34:15Z</time>
      </trkpt>
      <trkpt lat="45.81273" lon="6.14037">
        <ele>637</ele>
        <time>2016-09-23T19:36:15Z</time>
      </trkpt>
      <trkpt lat="45.81258" lon="6.14031">
        <ele>637</ele>
        <time>2016-09-23T19:38:15Z</time>
      </trkpt>
      <trkpt lat="45.81248" lon="6.14024">
        <ele>639</ele>
        <time>2016-09-23T19:40:15Z</time>
      </trkpt>
      <trkpt lat="45.81242" lon="6.14018">
        <ele>641</ele>
        <time>2016-09-23T19:42:15Z</time>
      </trkpt>
      <trkpt lat="45.81238" lon="6.14009">
        <ele>643</ele>
        <time>2016-09-23T19:44:15Z</time>
      </trkpt>
      <trkpt lat="45.81235" lon="6.14">
        <ele>646</ele>
        <time>2016-09-23T19:46:15Z</time>
      </trkpt>
      <trkpt lat="45.81231" lon="6.13995">
        <ele>647</ele>
        <time>2016-09-23T19:48:15Z</time>
      </trkpt>
      <trkpt lat="45.81226" lon="6.13995">
        <ele>647</ele>
        <time>2016-09-23T19:50:15Z</time>
      </trkpt>
      <trkpt lat="45.81222" lon="6.13999">
        <ele>645</ele>
        <time>2016-09-23T19:52:15Z</time>
      </trkpt>
      <trkpt lat="45.81214" lon="6.14012">
        <ele>641</ele>
        <time>2016-09-23T19:54:15Z</time>
      </trkpt>
      <trkpt lat="45.81208" lon="6.14021">
        <ele>639</ele>
        <time>2016-09-23T19:56:15Z</time>
      </trkpt>
      <trkpt lat="45.81198" lon="6.14027">
        <ele>637</ele>
        <time>2016-09-23T19:58:15Z</time>
      </trkpt>
      <trkpt lat="45.81189" lon="6.1403">
        <ele>636</ele>
        <time>2016-09-23T20:00:15Z</time>
      </trkpt>
      <trkpt lat="45.81174" lon="6.14034">
        <ele>635</ele>
        <time>2016-09-23T20:02:15Z</time>
      </trkpt>
      <trkpt lat="45.81163" lon="6.14033">
        <ele>635</ele>
        <time>2016-09-23T20:04:15Z</time>
      </trkpt>
      <trkpt lat="45.81147" lon="6.14032">
        <ele>635</ele>
        <time>2016-09-23T20:06:15Z</time>
      </trkpt>
      <trkpt lat="45.8112" lon="6.1403">
        <ele>635</ele>
        <time>2016-09-23T20:08:15Z</time>
      </trkpt>
      <trkpt lat="45.81108" lon="6.14029">
        <ele>635</ele>
        <time>2016-09-23T20:10:15Z</time>
      </trkpt>
      <trkpt lat="45.81091" lon="6.14034">
        <ele>634</ele>
        <time>2016-09-23T20:12:15Z</time>
      </trkpt>
      <trkpt lat="45.81081" lon="6.14037">
        <ele>634</ele>
        <time>2016-09-23T20:14:15Z</time>
      </trkpt>
      <trkpt lat="45.81074" lon="6.14037">
        <ele>633</ele>
        <time>2016-09-23T20:16:15Z</time>
      </trkpt>
      <trkpt lat="45.81066" lon="6.14035">
        <ele>634</ele>
        <time>2016-09-23T20:18:15Z</time>
      </trkpt>
      <trkpt lat="45.81058" lon="6.14032">
        <ele>634</ele>
        <time>2016-09-23T20:20:15Z</time>
      </trkpt>
      <trkpt lat="45.81051" lon="6.14028">
        <ele>634</ele>
        <time>2016-09-23T20:22:15Z</time>
      </trkpt>
      <trkpt lat="45.81047" lon="6.14026">
        <ele>634</ele>
        <time>2016-09-23T20:24:15Z</time>
      </trkpt>
      <trkpt lat="45.81045" lon="6.14027">
        <ele>634</ele>
        <time>2016-09-23T20:26:15Z</time>
      </trkpt>
      <trkpt lat="45.81043" lon="6.14036">
        <ele>633</ele>
        <time>2016-09-23T20:28:15Z</time>
      </trkpt>
      <trkpt lat="45.81042" lon="6.14045">
        <ele>632</ele>
        <time>2016-09-23T20:30:15Z</time>
      </trkpt>
      <trkpt lat="45.81042" lon="6.14045">
        <ele>632</ele>
        <time>2016-09-23T20:32:15Z</time>
      </trkpt>
      <trkpt lat="45.81034" lon="6.14044">
        <ele>632</ele>
        <time>2016-09-23T20:34:15Z</time>
      </trkpt>
      <trkpt lat="45.81033" lon="6.14044">
        <ele>631</ele>
        <time>2016-09-23T20:36:15Z</time>
      </trkpt>
      <trkpt lat="45.81025" lon="6.14043">
        <ele>631</ele>
        <time>2016-09-23T20:38:15Z</time>
      </trkpt>
      <trkpt lat="45.81013" lon="6.14039">
        <ele>632</ele>
        <time>2016-09-23T20:40:15Z</time>
      </trkpt>
      <trkpt lat="45.81002" lon="6.14033">
        <ele>632</ele>
        <time>2016-09-23T20:42:15Z</time>
      </trkpt>
      <trkpt lat="45.80989" lon="6.14024">
        <ele>634</ele>
        <time>2016-09-23T20:44:15Z</time>
      </trkpt>
      <trkpt lat="45.80971" lon="6.14012">
        <ele>636</ele>
        <time>2016-09-23T20:46:15Z</time>
      </trkpt>
      <trkpt lat="45.80964" lon="6.14009">
        <ele>637</ele>
        <time>2016-09-23T20:48:15Z</time>
      </trkpt>
      <trkpt lat="45.80962" lon="6.14008">
        <ele>637</ele>
        <time>2016-09-23T20:50:15Z</time>
      </trkpt>
      <trkpt lat="45.80957" lon="6.14008">
        <ele>637</ele>
        <time>2016-09-23T20:52:15Z</time>
      </trkpt>
      <trkpt lat="45.80948" lon="6.1401">
        <ele>638</ele>
        <time>2016-09-23T20:54:15Z</time>
      </trkpt>
      <trkpt lat="45.8093" lon="6.14016">
        <ele>638</ele>
        <time>2016-09-23T20:56:15Z</time>
      </trkpt>
      <trkpt lat="45.80918" lon="6.1402">
        <ele>638</ele>
        <time>2016-09-23T20:58:15Z</time>
      </trkpt>
      <trkpt lat="45.80914" lon="6.1402">
        <ele>638</ele>
        <time>2016-09-23T21:00:15Z</time>
      </trkpt>
      <trkpt lat="45.80909" lon="6.14019">
        <ele>638</ele>
        <time>2016-09-23T21:02:15Z</time>
      </trkpt>
      <trkpt lat="45.80904" lon="6.14016">
        <ele>639</ele>
        <time>2016-09-23T21:04:15Z</time>
      </trkpt>
      <trkpt lat="45.80889" lon="6.1401">
        <ele>640</ele>
        <time>2016-09-23T21:06:15Z</time>
      </trkpt>
      <trkpt lat="45.80884" lon="6.14007">
        <ele>640</ele>
        <time>2016-09-23T21:08:15Z</time>
      </trkpt>
      <trkpt lat="45.80867" lon="6.13999">
        <ele>642</ele>
        <time>2016-09-23T21:10:15Z</time>
      </trkpt>
      <trkpt lat="45.80847" lon="6.13989">
        <ele>643</ele>
        <time>2016-09-23T21:12:15Z</time>
      </trkpt>
      <trkpt lat="45.80838" lon="6.13982">
        <ele>644</ele>
        <time>2016-09-23T21:14:15Z</time>
      </trkpt>
      <trkpt lat="45.80834" lon="6.13977">
        <ele>645</ele>
        <time>2016-09-23T21:16:15Z</time>
      </trkpt>
      <trkpt lat="45.80816" lon="6.13954">
        <ele>651</ele>
        <time>2016-09-23T21:18:15Z</time>
      </trkpt>
      <trkpt lat="45.80796" lon="6.13925">
        <ele>657</ele>
        <time>2016-09-23T21:20:15Z</time>
      </trkpt>
      <trkpt lat="45.80794" lon="6.13922">
        <ele>658</ele>
        <time>2016-09-23T21:22:15Z</time>
      </trkpt>
      <trkpt lat="45.80791" lon="6.13918">
        <ele>658</ele>
        <time>2016-09-23T21:24:15Z</time>
      </trkpt>
      <trkpt lat="45.80784" lon="6.13916">
        <ele>659</ele>
        <time>2016-09-23T21:26:15Z</time>
      </trkpt>
      <trkpt lat="45.80778" lon="6.13916">
        <ele>660</ele>
        <time>2016-09-23T21:28:15Z</time>
      </trkpt>
      <trkpt lat="45.80772" lon="6.1392">
        <ele>660</ele>
        <time>2016-09-23T21:30:15Z</time>
      </trkpt>
      <trkpt lat="45.80765" lon="6.13926">
        <ele>660</ele>
        <time>2016-09-23T21:32:15Z</time>
      </trkpt>
      <trkpt lat="45.80762" lon="6.13927">
        <ele>661</ele>
        <time>2016-09-23T21:34:15Z</time>
      </trkpt>
      <trkpt lat="45.80762" lon="6.13927">
        <ele>661</ele>
        <time>2016-09-23T21:36:15Z</time>
      </trkpt>
      <trkpt lat="45.80761" lon="6.13931">
        <ele>660</ele>
        <time>2016-09-23T21:38:15Z</time>
      </trkpt>
      <trkpt lat="45.80757" lon="6.13944">
        <ele>659</ele>
        <time>2016-09-23T21:40:15Z</time>
      </trkpt>
      <trkpt lat="45.80752" lon="6.13963">
        <ele>658</ele>
        <time>2016-09-23T21:42:15Z</time>
      </trkpt>
      <trkpt lat="45.80748" lon="6.13972">
        <ele>658</ele>
        <time>2016-09-23T21:44:15Z</time>
      </trkpt>
      <trkpt lat="45.80743" lon="6.13979">
        <ele>658</ele>
        <time>2016-09-23T21:46:15Z</time>
      </trkpt>
      <trkpt lat="45.80736" lon="6.13986">
        <ele>660</ele>
        <time>2016-09-23T21:48:15Z</time>
      </trkpt>
      <trkpt lat="45.80725" lon="6.13993">
        <ele>662</ele>
        <time>2016-09-23T21:50:15Z</time>
      </trkpt>
      <trkpt lat="45.80714" lon="6.14">
        <ele>665</ele>
        <time>2016-09-23T21:52:15Z</time>
      </trkpt>
      <trkpt lat="45.80703" lon="6.14011">
        <ele>667</ele>
        <time>2016-09-23T21:54:15Z</time>
      </trkpt>
      <trkpt lat="45.8069" lon="6.14024">
        <ele>668</ele>
        <time>2016-09-23T21:56:15Z</time>
      </trkpt>
      <trkpt lat="45.80685" lon="6.14035">
        <ele>668</ele>
        <time>2016-09-23T21:58:15Z</time>
      </trkpt>
      <trkpt lat="45.80684" lon="6.14037">
        <ele>668</ele>
        <time>2016-09-23T22:00:15Z</time>
      </trkpt>
      <trkpt lat="45.80684" lon="6.14037">
        <ele>668</ele>
        <time>2016-09-23T22:02:15Z</time>
      </trkpt>
      <trkpt lat="45.8068" lon="6.14043">
        <ele>667</ele>
        <time>2016-09-23T22:04:15Z</time>
      </trkpt>
      <trkpt lat="45.80678" lon="6.14049">
        <ele>667</ele>
        <time>2016-09-23T22:06:15Z</time>
      </trkpt>
      <trkpt lat="45.80674" lon="6.14053">
        <ele>667</ele>
        <time>2016-09-23T22:08:15Z</time>
      </trkpt>
      <trkpt lat="45.80662" lon="6.14061">
        <ele>668</ele>
        <time>2016-09-23T22:10:15Z</time>
      </trkpt>
      <trkpt lat="45.80661" lon="6.14062">
        <ele>668</ele>
        <time>2016-09-23T22:12:15Z</time>
      </trkpt>
      <trkpt lat="45.80661" lon="6.14062">
        <ele>668</ele>
        <time>2016-09-23T22:14:15Z</time>
      </trkpt>
      <trkpt lat="45.80654" lon="6.14071">
        <ele>667</ele>
        <time>2016-09-23T22:16:15Z</time>
      </trkpt>
      <trkpt lat="45.8065" lon="6.14077">
        <ele>667</ele>
        <time>2016-09-23T22:18:15Z</time>
      </trkpt>
      <trkpt lat="45.80638" lon="6.14101">
        <ele>664</ele>
        <time>2016-09-23T22:20:15Z</time>
      </trkpt>
      <trkpt lat="45.80631" lon="6.14111">
        <ele>663</ele>
        <time>2016-09-23T22:22:15Z</time>
      </trkpt>
      <trkpt lat="45.80624" lon="6.14114">
        <ele>664</ele>
        <time>2016-09-23T22:24:15Z</time>
      </trkpt>
      <trkpt lat="45.80618" lon="6.14115">
        <ele>665</ele>
        <time>2016-09-23T22:26:15Z</time>
      </trkpt>
      <trkpt lat="45.80604" lon="6.14114">
        <ele>668</ele>
        <time>2016-09-23T22:28:15Z</time>
      </trkpt>
      <trkpt lat="45.80583" lon="6.1411">
        <ele>673</ele>
        <time>2016-09-23T22:30:15Z</time>
      </trkpt>
      <trkpt lat="45.80573" lon="6.14111">
        <ele>675</ele>
        <time>2016-09-23T22:32:15Z</time>
      </trkpt>
      <trkpt lat="45.80568" lon="6.14113">
        <ele>676</ele>
        <time>2016-09-23T22:34:15Z</time>
      </trkpt>
      <trkpt lat="45.80561" lon="6.14121">
        <ele>675</ele>
        <time>2016-09-23T22:36:15Z</time>
      </trkpt>
      <trkpt lat="45.8055" lon="6.14136">
        <ele>674</ele>
        <time>2016-09-23T22:38:15Z</time>
      </trkpt>
      <trkpt lat="45.80547" lon="6.14141">
        <ele>674</ele>
        <time>2016-09-23T22:40:15Z</time>
      </trkpt>
      <trkpt lat="45.80547" lon="6.14141">
        <ele>674</ele>
        <time>2016-09-23T22:42:15Z</time>
      </trkpt>
      <trkpt lat="45.80527" lon="6.14146">
        <ele>678</ele>
        <time>2016-09-23T22:44:15Z</time>
      </trkpt>
      <trkpt lat="45.80498" lon="6.14155">
        <ele>684</ele>
        <time>2016-09-23T22:46:15Z</time>
      </trkpt>
      <trkpt lat="45.80471" lon="6.14164">
        <ele>686</ele>
        <time>2016-09-23T22:48:15Z</time>
      </trkpt>
      <trkpt lat="45.80459" lon="6.14168">
        <ele>687</ele>
        <time>2016-09-23T22:50:15Z</time>
      </trkpt>
      <trkpt lat="45.8045" lon="6.14173">
        <ele>687</ele>
        <time>2016-09-23T22:52:15Z</time>
      </trkpt>
      <trkpt lat="45.8043" lon="6.14176">
        <ele>689</ele>
        <time>2016-09-23T22:54:15Z</time>
      </trkpt>
      <trkpt lat="45.80388" lon="6.1416">
        <ele>698</ele>
        <time>2016-09-23T22:56:15Z</time>
      </trkpt>
      <trkpt lat="45.80345" lon="6.14153">
        <ele>704</ele>
        <time>2016-09-23T22:58:15Z</time>
      </trkpt>
      <trkpt lat="45.80294" lon="6.14154">
        <ele>709</ele>
        <time>2016-09-23T23:00:15Z</time>
      </trkpt>
      <trkpt lat="45.80235" lon="6.14171">
        <ele>710</ele>
        <time>2016-09-23T23:02:15Z</time>
      </trkpt>
      <trkpt lat="45.80198" lon="6.14184">
        <ele>708</ele>
        <time>2016-09-23T23:04:15Z</time>
      </trkpt>
      <trkpt lat="45.80158" lon="6.14187">
        <ele>708</ele>
        <time>2016-09-23T23:06:15Z</time>
      </trkpt>
      <trkpt lat="45.80115" lon="6.14186">
        <ele>707</ele>
        <time>2016-09-23T23:08:15Z</time>
      </trkpt>
      <trkpt lat="45.80091" lon="6.14179">
        <ele>707</ele>
        <time>2016-09-23T23:10:15Z</time>
      </trkpt>
      <trkpt lat="45.80082" lon="6.14166">
        <ele>710</ele>
        <time>2016-09-23T23:12:15Z</time>
      </trkpt>
      <trkpt lat="45.80074" lon="6.14119">
        <ele>714</ele>
        <time>2016-09-23T23:14:15Z</time>
      </trkpt>
      <trkpt lat="45.80068" lon="6.14092">
        <ele>717</ele>
        <time>2016-09-23T23:16:15Z</time>
      </trkpt>
      <trkpt lat="45.80062" lon="6.14084">
        <ele>718</ele>
        <time>2016-09-23T23:18:15Z</time>
      </trkpt>
      <trkpt lat="45.80055" lon="6.14082">
        <ele>718</ele>
        <time>2016-09-23T23:20:15Z</time>
      </trkpt>
      <trkpt lat="45.80049" lon="6.14083">
        <ele>717</ele>
        <time>2016-09-23T23:22:15Z</time>
      </trkpt>
      <trkpt lat="45.80038" lon="6.14094">
        <ele>715</ele>
        <time>2016-09-23T23:24:15Z</time>
      </trkpt>
      <trkpt lat="45.80025" lon="6.14109">
        <ele>711</ele>
        <time>2016-09-23T23:26:15Z</time>
      </trkpt>
      <trkpt lat="45.80025" lon="6.14109">
        <ele>711</ele>
        <time>2016-09-23T23:28:15Z</time>
      </trkpt>
      <trkpt lat="45.8002" lon="6.14112">
        <ele>710</ele>
        <time>2016-09-23T23:30:15Z</time>
      </trkpt>
      <trkpt lat="45.80014" lon="6.14112">
        <ele>710</ele>
        <time>2016-09-23T23:32:15Z</time>
      </trkpt>
      <trkpt lat="45.8001" lon="6.14109">
        <ele>710</ele>
        <time>2016-09-23T23:34:15Z</time>
      </trkpt>
      <trkpt lat="45.80003" lon="6.14099">
        <ele>712</ele>
        <time>2016-09-23T23:36:15Z</time>
      </trkpt>
      <trkpt lat="45.79998" lon="6.14087">
        <ele>714</ele>
        <time>2016-09-23T23:38:15Z</time>
      </trkpt>
      <trkpt lat="45.79993" lon="6.14082">
        <ele>714</ele>
        <time>2016-09-23T23:40:15Z</time>
      </trkpt>
      <trkpt lat="45.7999" lon="6.14078">
        <ele>715</ele>
        <time>2016-09-23T23:42:15Z</time>
      </trkpt>
      <trkpt lat="45.79986" lon="6.14076">
        <ele>715</ele>
        <time>2016-09-23T23:44:15Z</time>
      </trkpt>
      <trkpt lat="45.79973" lon="6.14074">
        <ele>713</ele>
        <time>2016-09-23T23:46:15Z</time>
      </trkpt>
      <trkpt lat="45.79969" lon="6.14073">
        <ele>713</ele>
        <time>2016-09-23T23:48:15Z</time>
      </trkpt>
      <trkpt lat="45.79966" lon="6.14071">
        <ele>713</ele>
        <time>2016-09-23T23:50:15Z</time>
      </trkpt>
      <trkpt lat="45.79958" lon="6.14066">
        <ele>713</ele>
        <time>2016-09-23T23:52:15Z</time>
      </trkpt>
      <trkpt lat="45.79942" lon="6.14061">
        <ele>712</ele>
        <time>2016-09-23T23:54:15Z</time>
      </trkpt>
      <trkpt lat="45.79939" lon="6.1406">
        <ele>712</ele>
        <time>2016-09-23T23:56:15Z</time>
      </trkpt>
      <trkpt lat="45.79935" lon="6.1406">
        <ele>711</ele>
        <time>2016-09-23T23:58:15Z</time>
      </trkpt>
      <trkpt lat="45.7993" lon="6.14061">
        <ele>710</ele>
        <time>2016-09-24T00:00:15Z</time>
      </trkpt>
      <trkpt lat="45.79922" lon="6.14062">
        <ele>709</ele>
        <time>2016-09-24T00:02:15Z</time>
      </trkpt>
      <trkpt lat="45.79915" lon="6.14063">
        <ele>709</ele>
        <time>2016-09-24T00:04:15Z</time>
      </trkpt>
      <trkpt lat="45.79903" lon="6.14065">
        <ele>713</ele>
        <time>2016-09-24T00:06:15Z</time>
      </trkpt>
      <trkpt lat="45.79898" lon="6.14065">
        <ele>714</ele>
        <time>2016-09-24T00:08:15Z</time>
      </trkpt>
      <trkpt lat="45.79894" lon="6.14068">
        <ele>715</ele>
        <time>2016-09-24T00:10:15Z</time>
      </trkpt>
      <trkpt lat="45.7989" lon="6.14073">
        <ele>716</ele>
        <time>2016-09-24T00:12:15Z</time>
      </trkpt>
      <trkpt lat="45.79884" lon="6.14093">
        <ele>715</ele>
        <time>2016-09-24T00:14:15Z</time>
      </trkpt>
      <trkpt lat="45.79865" lon="6.14142">
        <ele>714</ele>
        <time>2016-09-24T00:16:15Z</time>
      </trkpt>
      <trkpt lat="45.79856" lon="6.1416">
        <ele>714</ele>
        <time>2016-09-24T00:18:15Z</time>
      </trkpt>
      <trkpt lat="45.79847" lon="6.14168">
        <ele>714</ele>
        <time>2016-09-24T00:20:15Z</time>
      </trkpt>
      <trkpt lat="45.79838" lon="6.14172">
        <ele>715</ele>
        <time>2016-09-24T00:22:15Z</time>
      </trkpt>
      <trkpt lat="45.79814" lon="6.14171">
        <ele>715</ele>
        <time>2016-09-24T00:24:15Z</time>
      </trkpt>
      <trkpt lat="45.79787" lon="6.14153">
        <ele>717</ele>
        <time>2016-09-24T00:26:15Z</time>
      </trkpt>
      <trkpt lat="45.79782" lon="6.14149">
        <ele>717</ele>
        <time>2016-09-24T00:28:15Z</time>
      </trkpt>
      <trkpt lat="45.79767" lon="6.14134">
        <ele>719</ele>
        <time>2016-09-24T00:30:15Z</time>
      </trkpt>
      <trkpt lat="45.79759" lon="6.14133">
        <ele>719</ele>
        <time>2016-09-24T00:32:15Z</time>
      </trkpt>
      <trkpt lat="45.79748" lon="6.14142">
        <ele>716</ele>
        <time>2016-09-24T00:34:15Z</time>
      </trkpt>
      <trkpt lat="45.7974" lon="6.14147">
        <ele>716</ele>
        <time>2016-09-24T00:36:15Z</time>
      </trkpt>
      <trkpt lat="45.79733" lon="6.14147">
        <ele>716</ele>
        <time>2016-09-24T00:38:15Z</time>
      </trkpt>
      <trkpt lat="45.79727" lon="6.14146">
        <ele>717</ele>
        <time>2016-09-24T00:40:15Z</time>
      </trkpt>
      <trkpt lat="45.79723" lon="6.14149">
        <ele>716</ele>
        <time>2016-09-24T00:42:15Z</time>
      </trkpt>
      <trkpt lat="45.7972" lon="6.14158">
        <ele>714</ele>
        <time>2016-09-24T00:44:15Z</time>
      </trkpt>
      <trkpt lat="45.79723" lon="6.14195">
        <ele>705</ele>
        <time>2016-09-24T00:46:15Z</time>
      </trkpt>
      <trkpt lat="45.79731" lon="6.14239">
        <ele>696</ele>
        <time>2016-09-24T00:48:15Z</time>
      </trkpt>
      <trkpt lat="45.79729" lon="6.14259">
        <ele>692</ele>
        <time>2016-09-24T00:50:15Z</time>
      </trkpt>
      <trkpt lat="45.79724" lon="6.14268">
        <ele>691</ele>
        <time>2016-09-24T00:52:15Z</time>
      </trkpt>
      <trkpt lat="45.7971" lon="6.14274">
        <ele>689</ele>
        <time>2016-09-24T00:54:15Z</time>
      </trkpt>
      <trkpt lat="45.79682" lon="6.14287">
        <ele>688</ele>
        <time>2016-09-24T00:56:15Z</time>
      </trkpt>
      <trkpt lat="45.79664" lon="6.14308">
        <ele>688</ele>
        <time>2016-09-24T00:58:15Z</time>
      </trkpt>
      <trkpt lat="45.79657" lon="6.14341">
        <ele>692</ele>
        <time>2016-09-24T01:00:15Z</time>
      </trkpt>
      <trkpt lat="45.79655" lon="6.14352">
        <ele>695</ele>
        <time>2016-09-24T01:02:15Z</time>
      </trkpt>
      <trkpt lat="45.79623" lon="6.14345">
        <ele>698</ele>
        <time>2016-09-24T01:04:15Z</time>
      </trkpt>
      <trkpt lat="45.79583" lon="6.14335">
        <ele>702</ele>
        <time>2016-09-24T01:06:15Z</time>
      </trkpt>
      <trkpt lat="45.79565" lon="6.14339">
        <ele>702</ele>
        <time>2016-09-24T01:08:15Z</time>
      </trkpt>
      <trkpt lat="45.79541" lon="6.14352">
        <ele>704</ele>
        <time>2016-09-24T01:10:15Z</time>
      </trkpt>
      <trkpt lat="45.7952" lon="6.14367">
        <ele>706</ele>
        <time>2016-09-24T01:12:15Z</time>
      </trkpt>
      <trkpt lat="45.79513" lon="6.14373">
        <ele>707</ele>
        <time>2016-09-24T01:14:15Z</time>
      </trkpt>
      <trkpt lat="45.79513" lon="6.14373">
        <ele>707</ele>
        <time>2016-09-24T01:16:15Z</time>
      </trkpt>
      <trkpt lat="45.79488" lon="6.14366">
        <ele>706</ele>
        <time>2016-09-24T01:18:15Z</time>
      </trkpt>
      <trkpt lat="45.79454" lon="6.1435">
        <ele>703</ele>
        <time>2016-09-24T01:20:15Z</time>
      </trkpt>
      <trkpt lat="45.79423" lon="6.14337">
        <ele>701</ele>
        <time>2016-09-24T01:22:15Z</time>
      </trkpt>
      <trkpt lat="45.79401" lon="6.14331">
        <ele>704</ele>
        <time>2016-09-24T01:24:15Z</time>
      </trkpt>
      <trkpt lat="45.79366" lon="6.14307">
        <ele>711</ele>
        <time>2016-09-24T01:26:15Z</time>
      </trkpt>
      <trkpt lat="45.79316" lon="6.14255">
        <ele>715</ele>
        <time>2016-09-24T01:28:15Z</time>
      </trkpt>
      <trkpt lat="45.7928" lon="6.14227">
        <ele>719</ele>
        <time>2016-09-24T01:30:15Z</time>
      </trkpt>
      <trkpt lat="45.79242" lon="6.14207">
        <ele>722</ele>
        <time>2016-09-24T01:32:15Z</time>
      </trkpt>
      <trkpt lat="45.79218" lon="6.14194">
        <ele>723</ele>
        <time>2016-09-24T01:34:15Z</time>
      </trkpt>
      <trkpt lat="45.79211" lon="6.14182">
        <ele>724</ele>
        <time>2016-09-24T01:36:15Z</time>
      </trkpt>
      <trkpt lat="45.7921" lon="6.14174">
        <ele>725</ele>
        <time>2016-09-24T01:38:15Z</time>
      </trkpt>
      <trkpt lat="45.79211" lon="6.14164">
        <ele>727</ele>
        <time>2016-09-24T01:40:15Z</time>
      </trkpt>
      <trkpt lat="45.79219" lon="6.14149">
        <ele>731</ele>
        <time>2016-09-24T01:42:15Z</time>
      </trkpt>
      <trkpt lat="45.79247" lon="6.14115">
        <ele>740</ele>
        <time>2016-09-24T01:44:15Z</time>
      </trkpt>
      <trkpt lat="45.79249" lon="6.14084">
        <ele>747</ele>
        <time>2016-09-24T01:46:15Z</time>
      </trkpt>
      <trkpt lat="45.79241" lon="6.14047">
        <ele>753</ele>
        <time>2016-09-24T01:48:15Z</time>
      </trkpt>
      <trkpt lat="45.7922" lon="6.14032">
        <ele>755</ele>
        <time>2016-09-24T01:50:15Z</time>
      </trkpt>
      <trkpt lat="45.79178" lon="6.14018">
        <ele>759</ele>
        <time>2016-09-24T01:52:15Z</time>
      </trkpt>
      <trkpt lat="45.79172" lon="6.14014">
        <ele>760</ele>
        <time>2016-09-24T01:54:15Z</time>
      </trkpt>
      <trkpt lat="45.7917" lon="6.14009">
        <ele>762</ele>
        <time>2016-09-24T01:56:15Z</time>
      </trkpt>
      <trkpt lat="45.79172" lon="6.13994">
        <ele>765</ele>
        <time>2016-09-24T01:58:15Z</time>
      </trkpt>
      <trkpt lat="45.79171" lon="6.13973">
        <ele>768</ele>
        <time>2016-09-24T02:00:15Z</time>
      </trkpt>
      <trkpt lat="45.79167" lon="6.13961">
        <ele>770</ele>
        <time>2016-09-24T02:02:15Z</time>
      </trkpt>
      <trkpt lat="45.79159" lon="6.13943">
        <ele>772</ele>
        <time>2016-09-24T02:04:15Z</time>
      </trkpt>
      <trkpt lat="45.79152" lon="6.13921">
        <ele>774</ele>
        <time>2016-09-24T02:06:15Z</time>
      </trkpt>
      <trkpt lat="45.7915" lon="6.13917">
        <ele>774</ele>
        <time>2016-09-24T02:08:15Z</time>
      </trkpt>
      <trkpt lat="45.79134" lon="6.1387">
        <ele>781</ele>
        <time>2016-09-24T02:10:15Z</time>
      </trkpt>
      <trkpt lat="45.79127" lon="6.13852">
        <ele>784</ele>
        <time>2016-09-24T02:12:15Z</time>
      </trkpt>
      <trkpt lat="45.79122" lon="6.13845">
        <ele>785</ele>
        <time>2016-09-24T02:14:15Z</time>
      </trkpt>
      <trkpt lat="45.79115" lon="6.1384">
        <ele>786</ele>
        <time>2016-09-24T02:16:15Z</time>
      </trkpt>
      <trkpt lat="45.79101" lon="6.13834">
        <ele>788</ele>
        <time>2016-09-24T02:18:15Z</time>
      </trkpt>
      <trkpt lat="45.79081" lon="6.13826">
        <ele>790</ele>
        <time>2016-09-24T02:20:15Z</time>
      </trkpt>
      <trkpt lat="45.79056" lon="6.13817">
        <ele>790</ele>
        <time>2016-09-24T02:22:15Z</time>
      </trkpt>
      <trkpt lat="45.79037" lon="6.13809">
        <ele>791</ele>
        <time>2016-09-24T02:24:15Z</time>
      </trkpt>
      <trkpt lat="45.79022" lon="6.13804">
        <ele>791</ele>
        <time>2016-09-24T02:26:15Z</time>
      </trkpt>
      <trkpt lat="45.79007" lon="6.138">
        <ele>790</ele>
        <time>2016-09-24T02:28:15Z</time>
      </trkpt>
      <trkpt lat="45.78989" lon="6.13794">
        <ele>791</ele>
        <time>2016-09-24T02:30:15Z</time>
      </trkpt>
      <trkpt lat="45.78983" lon="6.13789">
        <ele>792</ele>
        <time>2016-09-24T02:32:15Z</time>
      </trkpt>
      <trkpt lat="45.78976" lon="6.13782">
        <ele>793</ele>
        <time>2016-09-24T02:34:15Z</time>
      </trkpt>
      <trkpt lat="45.78965" lon="6.13767">
        <ele>795</ele>
        <time>2016-09-24T02:36:15Z</time>
      </trkpt>
      <trkpt lat="45.78964" lon="6.13764">
        <ele>796</ele>
        <time>2016-09-24T02:38:15Z</time>
      </trkpt>
      <trkpt lat="45.78959" lon="6.13759">
        <ele>796</ele>
        <time>2016-09-24T02:40:15Z</time>
      </trkpt>
      <trkpt lat="45.78942" lon="6.13743">
        <ele>798</ele>
        <time>2016-09-24T02:42:15Z</time>
      </trkpt>
      <trkpt lat="45.78928" lon="6.13729">
        <ele>799</ele>
        <time>2016-09-24T02:44:15Z</time>
      </trkpt>
      <trkpt lat="45.78912" lon="6.13709">
        <ele>801</ele>
        <time>2016-09-24T02:46:15Z</time>
      </trkpt>
      <trkpt lat="45.78896" lon="6.13687">
        <ele>804</ele>
        <time>2016-09-24T02:48:15Z</time>
      </trkpt>
      <trkpt lat="45.78882" lon="6.13668">
        <ele>806</ele>
        <time>2016-09-24T02:50:15Z</time>
      </trkpt>
      <trkpt lat="45.78871" lon="6.13658">
        <ele>807</ele>
        <time>2016-09-24T02:52:15Z</time>
      </trkpt>
      <trkpt lat="45.7885" lon="6.13641">
        <ele>808</ele>
        <time>2016-09-24T02:54:15Z</time>
      </trkpt>
      <trkpt lat="45.78836" lon="6.13631">
        <ele>809</ele>
        <time>2016-09-24T02:56:15Z</time>
      </trkpt>
      <trkpt lat="45.7883" lon="6.13621">
        <ele>811</ele>
        <time>2016-09-24T02:58:15Z</time>
      </trkpt>
      <trkpt lat="45.7883" lon="6.13612">
        <ele>813</ele>
        <time>2016-09-24T03:00:15Z</time>
      </trkpt>
      <trkpt lat="45.78834" lon="6.13604">
        <ele>815</ele>
        <time>2016-09-24T03:02:15Z</time>
      </trkpt>
      <trkpt lat="45.7884" lon="6.136">
        <ele>816</ele>
        <time>2016-09-24T03:04:15Z</time>
      </trkpt>
      <trkpt lat="45.78849" lon="6.13602">
        <ele>817</ele>
        <time>2016-09-24T03:06:15Z</time>
      </trkpt>
      <trkpt lat="45.78858" lon="6.13607">
        <ele>816</ele>
        <time>2016-09-24T03:08:15Z</time>
      </trkpt>
      <trkpt lat="45.78874" lon="6.13615">
        <ele>816</ele>
        <time>2016-09-24T03:10:15Z</time>
      </trkpt>
      <trkpt lat="45.78886" lon="6.13618">
        <ele>816</ele>
        <time>2016-09-24T03:12:15Z</time>
      </trkpt>
      <trkpt lat="45.78913" lon="6.13622">
        <ele>818</ele>
        <time>2016-09-24T03:14:15Z</time>
      </trkpt>
      <trkpt lat="45.78943" lon="6.13626">
        <ele>820</ele>
        <time>2016-09-24T03:16:15Z</time>
      </trkpt>
      <trkpt lat="45.78963" lon="6.1363">
        <ele>822</ele>
        <time>2016-09-24T03:18:15Z</time>
      </trkpt>
      <trkpt lat="45.78988" lon="6.13634">
        <ele>824</ele>
        <time>2016-09-24T03:20:15Z</time>
      </trkpt>
      <trkpt lat="45.79002" lon="6.13634">
        <ele>826</ele>
        <time>2016-09-24T03:22:15Z</time>
      </trkpt>
      <trkpt lat="45.79012" lon="6.13632">
        <ele>826</ele>
        <time>2016-09-24T03:24:15Z</time>
      </trkpt>
      <trkpt lat="45.7902" lon="6.13628">
        <ele>826</ele>
        <time>2016-09-24T03:26:15Z</time>
      </trkpt>
      <trkpt lat="45.79025" lon="6.13625">
        <ele>826</ele>
        <time>2016-09-24T03:28:15Z</time>
      </trkpt>
      <trkpt lat="45.79038" lon="6.13619">
        <ele>826</ele>
        <time>2016-09-24T03:30:15Z</time>
      </trkpt>
      <trkpt lat="45.79058" lon="6.13608">
        <ele>826</ele>
        <time>2016-09-24T03:32:15Z</time>
      </trkpt>
      <trkpt lat="45.79067" lon="6.13602">
        <ele>826</ele>
        <time>2016-09-24T03:34:15Z</time>
      </trkpt>
      <trkpt lat="45.79067" lon="6.13602">
        <ele>826</ele>
        <time>2016-09-24T03:36:15Z</time>
      </trkpt>
      <trkpt lat="45.79072" lon="6.13598">
        <ele>826</ele>
        <time>2016-09-24T03:38:15Z</time>
      </trkpt>
      <trkpt lat="45.79078" lon="6.13592">
        <ele>826</ele>
        <time>2016-09-24T03:40:15Z</time>
      </trkpt>
      <trkpt lat="45.79084" lon="6.13584">
        <ele>826</ele>
        <time>2016-09-24T03:42:15Z</time>
      </trkpt>
      <trkpt lat="45.79088" lon="6.1358">
        <ele>827</ele>
        <time>2016-09-24T03:44:15Z</time>
      </trkpt>
      <trkpt lat="45.7909" lon="6.13576">
        <ele>827</ele>
        <time>2016-09-24T03:46:15Z</time>
      </trkpt>
      <trkpt lat="45.79092" lon="6.13571">
        <ele>828</ele>
        <time>2016-09-24T03:48:15Z</time>
      </trkpt>
      <trkpt lat="45.79094" lon="6.13567">
        <ele>829</ele>
        <time>2016-09-24T03:50:15Z</time>
      </trkpt>
      <trkpt lat="45.79095" lon="6.13563">
        <ele>830</ele>
        <time>2016-09-24T03:52:15Z</time>
      </trkpt>
      <trkpt lat="45.79096" lon="6.13555">
        <ele>831</ele>
        <time>2016-09-24T03:54:15Z</time>
      </trkpt>
      <trkpt lat="45.79096" lon="6.1355">
        <ele>832</ele>
        <time>2016-09-24T03:56:15Z</time>
      </trkpt>
      <trkpt lat="45.79094" lon="6.13545">
        <ele>833</ele>
        <time>2016-09-24T03:58:15Z</time>
      </trkpt>
      <trkpt lat="45.79092" lon="6.13539">
        <ele>835</ele>
        <time>2016-09-24T04:00:15Z</time>
      </trkpt>
      <trkpt lat="45.79092" lon="6.13539">
        <ele>835</ele>
        <time>2016-09-24T04:02:15Z</time>
      </trkpt>
      <trkpt lat="45.7908" lon="6.13554">
        <ele>832</ele>
        <time>2016-09-24T04:04:15Z</time>
      </trkpt>
      <trkpt lat="45.79071" lon="6.13562">
        <ele>831</ele>
        <time>2016-09-24T04:06:15Z</time>
      </trkpt>
      <trkpt lat="45.79063" lon="6.13566">
        <ele>831</ele>
        <time>2016-09-24T04:08:15Z</time>
      </trkpt>
      <trkpt lat="45.79054" lon="6.13568">
        <ele>832</ele>
        <time>2016-09-24T04:10:15Z</time>
      </trkpt>
      <trkpt lat="45.79044" lon="6.13567">
        <ele>833</ele>
        <time>2016-09-24T04:12:15Z</time>
      </trkpt>
      <trkpt lat="45.79014" lon="6.1356">
        <ele>837</ele>
        <time>2016-09-24T04:14:15Z</time>
      </trkpt>
      <trkpt lat="45.7901" lon="6.13558">
        <ele>838</ele>
        <time>2016-09-24T04:16:15Z</time>
      </trkpt>
      <trkpt lat="45.78984" lon="6.1355">
        <ele>838</ele>
        <time>2016-09-24T04:18:15Z</time>
      </trkpt>
      <trkpt lat="45.78973" lon="6.13546">
        <ele>838</ele>
        <time>2016-09-24T04:20:15Z</time>
      </trkpt>
      <trkpt lat="45.7896" lon="6.1354">
        <ele>837</ele>
        <time>2016-09-24T04:22:15Z</time>
      </trkpt>
      <trkpt lat="45.78929" lon="6.13521">
        <ele>838</ele>
        <time>2016-09-24T04:24:15Z</time>
      </trkpt>
      <trkpt lat="45.78901" lon="6.13502">
        <ele>839</ele>
        <time>2016-09-24T04:26:15Z</time>
      </trkpt>
      <trkpt lat="45.78892" lon="6.13495">
        <ele>839</ele>
        <time>2016-09-24T04:28:15Z</time>
      </trkpt>
      <trkpt lat="45.78884" lon="6.13486">
        <ele>839</ele>
        <time>2016-09-24T04:30:15Z</time>
      </trkpt>
      <trkpt lat="45.78879" lon="6.13476">
        <ele>839</ele>
        <time>2016-09-24T04:32:15Z</time>
      </trkpt>
      <trkpt lat="45.78877" lon="6.1347">
        <ele>840</ele>
        <time>2016-09-24T04:34:15Z</time>
      </trkpt>
      <trkpt lat="45.78875" lon="6.13466">
        <ele>840</ele>
        <time>2016-09-24T04:36:15Z</time>
      </trkpt>
      <trkpt lat="45.78873" lon="6.13458">
        <ele>840</ele>
        <time>2016-09-24T04:38:15Z</time>
      </trkpt>
      <trkpt lat="45.78872" lon="6.13444">
        <ele>841</ele>
        <time>2016-09-24T04:40:15Z</time>
      </trkpt>
      <trkpt lat="45.78869" lon="6.13425">
        <ele>842</ele>
        <time>2016-09-24T04:42:15Z</time>
      </trkpt>
      <trkpt lat="45.78867" lon="6.13412">
        <ele>842</ele>
        <time>2016-09-24T04:44:15Z</time>
      </trkpt>
      <trkpt lat="45.78863" lon="6.13399">
        <ele>843</ele>
        <time>2016-09-24T04:46:15Z</time>
      </trkpt>
      <trkpt lat="45.78858" lon="6.13389">
        <ele>844</ele>
        <time>2016-09-24T04:48:15Z</time>
      </trkpt>
      <trkpt lat="45.78852" lon="6.13382">
        <ele>844</ele>
        <time>2016-09-24T04:50:15Z</time>
      </trkpt>
      <trkpt lat="45.78841" lon="6.13372">
        <ele>844</ele>
        <time>2016-09-24T04:52:15Z</time>
      </trkpt>
      <trkpt lat="45.78836" lon="6.13368">
        <ele>844</ele>
        <time>2016-09-24T04:54:15Z</time>
      </trkpt>
      <trkpt lat="45.78825" lon="6.13358">
        <ele>844</ele>
        <time>2016-09-24T04:56:15Z</time>
      </trkpt>
      <trkpt lat="45.78812" lon="6.13354">
        <ele>845</ele>
        <time>2016-09-24T04:58:15Z</time>
      </trkpt>
      <trkpt lat="45.78806" lon="6.13354">
        <ele>845</ele>
        <time>2016-09-24T05:00:15Z</time>
      </trkpt>
      <trkpt lat="45.78803" lon="6.13355">
        <ele>845</ele>
        <time>2016-09-24T05:02:15Z</time>
      </trkpt>
      <trkpt lat="45.78795" lon="6.13357">
        <ele>845</ele>
        <time>2016-09-24T05:04:15Z</time>
      </trkpt>
      <trkpt lat="45.78786" lon="6.13363">
        <ele>844</ele>
        <time>2016-09-24T05:06:15Z</time>
      </trkpt>
      <trkpt lat="45.78776" lon="6.13369">
        <ele>844</ele>
        <time>2016-09-24T05:08:15Z</time>
      </trkpt>
      <trkpt lat="45.78769" lon="6.13372">
        <ele>843</ele>
        <time>2016-09-24T05:10:15Z</time>
      </trkpt>
      <trkpt lat="45.78759" lon="6.13374">
        <ele>843</ele>
        <time>2016-09-24T05:12:15Z</time>
      </trkpt>
      <trkpt lat="45.78746" lon="6.13373">
        <ele>843</ele>
        <time>2016-09-24T05:14:15Z</time>
      </trkpt>
      <trkpt lat="45.78701" lon="6.13367">
        <ele>845</ele>
        <time>2016-09-24T05:16:15Z</time>
      </trkpt>
      <trkpt lat="45.78656" lon="6.13361">
        <ele>846</ele>
        <time>2016-09-24T05:18:15Z</time>
      </trkpt>
      <trkpt lat="45.7864" lon="6.13358">
        <ele>846</ele>
        <time>2016-09-24T05:20:15Z</time>
      </trkpt>
      <trkpt lat="45.7863" lon="6.13355">
        <ele>846</ele>
        <time>2016-09-24T05:22:15Z</time>
      </trkpt>
      <trkpt lat="45.78621" lon="6.13352">
        <ele>846</ele>
        <time>2016-09-24T05:24:15Z</time>
      </trkpt>
      <trkpt lat="45.78615" lon="6.1335">
        <ele>846</ele>
        <time>2016-09-24T05:26:15Z</time>
      </trkpt>
      <trkpt lat="45.78605" lon="6.13343">
        <ele>846</ele>
        <time>2016-09-24T05:28:15Z</time>
      </trkpt>
      <trkpt lat="45.78585" lon="6.13329">
        <ele>847</ele>
        <time>2016-09-24T05:30:15Z</time>
      </trkpt>
      <trkpt lat="45.78569" lon="6.13316">
        <ele>848</ele>
        <time>2016-09-24T05:32:15Z</time>
      </trkpt>
      <trkpt lat="45.78553" lon="6.13305">
        <ele>849</ele>
        <time>2016-09-24T05:34:15Z</time>
      </trkpt>
      <trkpt lat="45.78499" lon="6.13263">
        <ele>856</ele>
        <time>2016-09-24T05:36:15Z</time>
      </trkpt>
      <trkpt lat="45.78487" lon="6.13255">
        <ele>858</ele>
        <time>2016-09-24T05:38:15Z</time>
      </trkpt>
      <trkpt lat="45.78473" lon="6.13245">
        <ele>860</ele>
        <time>2016-09-24T05:40:15Z</time>
      </trkpt>
      <trkpt lat="45.78463" lon="6.13242">
        <ele>860</ele>
        <time>2016-09-24T05:42:15Z</time>
      </trkpt>
      <trkpt lat="45.78453" lon="6.13241">
        <ele>860</ele>
        <time>2016-09-24T05:44:15Z</time>
      </trkpt>
      <trkpt lat="45.78442" lon="6.13242">
        <ele>860</ele>
        <time>2016-09-24T05:46:15Z</time>
      </trkpt>
      <trkpt lat="45.78427" lon="6.13246">
        <ele>859</ele>
        <time>2016-09-24T05:48:15Z</time>
      </trkpt>
      <trkpt lat="45.78416" lon="6.13248">
        <ele>858</ele>
        <time>2016-09-24T05:50:15Z</time>
      </trkpt>
      <trkpt lat="45.78387" lon="6.13253">
        <ele>855</ele>
        <time>2016-09-24T05:52:15Z</time>
      </trkpt>
      <trkpt lat="45.78378" lon="6.13252">
        <ele>854</ele>
        <time>2016-09-24T05:54:15Z</time>
      </trkpt>
      <trkpt lat="45.78369" lon="6.1325">
        <ele>854</ele>
        <time>2016-09-24T05:56:15Z</time>
      </trkpt>
      <trkpt lat="45.78354" lon="6.13243">
        <ele>855</ele>
        <time>2016-09-24T05:58:15Z</time>
      </trkpt>
      <trkpt lat="45.78331" lon="6.1323">
        <ele>856</ele>
        <time>2016-09-24T06:00:15Z</time>
      </trkpt>
      <trkpt lat="45.78324" lon="6.13227">
        <ele>857</ele>
        <time>2016-09-24T06:02:15Z</time>
      </trkpt>
      <trkpt lat="45.78312" lon="6.13224">
        <ele>858</ele>
        <time>2016-09-24T06:04:15Z</time>
      </trkpt>
      <trkpt lat="45.78266" lon="6.13219">
        <ele>861</ele>
        <time>2016-09-24T06:06:15Z</time>
      </trkpt>
      <trkpt lat="45.78228" lon="6.13214">
        <ele>861</ele>
        <time>2016-09-24T06:08:15Z</time>
      </trkpt>
      <trkpt lat="45.78219" lon="6.13213">
        <ele>861</ele>
        <time>2016-09-24T06:10:15Z</time>
      </trkpt>
      <trkpt lat="45.78212" lon="6.13211">
        <ele>861</ele>
        <time>2016-09-24T06:12:15Z</time>
      </trkpt>
      <trkpt lat="45.78203" lon="6.13208">
        <ele>861</ele>
        <time>2016-09-24T06:14:15Z</time>
      </trkpt>
      <trkpt lat="45.78191" lon="6.13204">
        <ele>862</ele>
        <time>2016-09-24T06:16:15Z</time>
      </trkpt>
      <trkpt lat="45.78167" lon="6.13192">
        <ele>863</ele>
        <time>2016-09-24T06:18:15Z</time>
      </trkpt>
      <trkpt lat="45.7814" lon="6.13178">
        <ele>864</ele>
        <time>2016-09-24T06:20:15Z</time>
      </trkpt>
      <trkpt lat="45.78133" lon="6.13173">
        <ele>865</ele>
        <time>2016-09-24T06:22:15Z</time>
      </trkpt>
      <trkpt lat="45.7813" lon="6.13171">
        <ele>865</ele>
        <time>2016-09-24T06:24:15Z</time>
      </trkpt>
      <trkpt lat="45.78124" lon="6.13166">
        <ele>866</ele>
        <time>2016-09-24T06:26:15Z</time>
      </trkpt>
      <trkpt lat="45.78116" lon="6.13159">
        <ele>867</ele>
        <time>2016-09-24T06:28:15Z</time>
      </trkpt>
      <trkpt lat="45.78099" lon="6.13142">
        <ele>870</ele>
        <time>2016-09-24T06:30:15Z</time>
      </trkpt>
      <trkpt lat="45.78094" lon="6.13138">
        <ele>871</ele>
        <time>2016-09-24T06:32:15Z</time>
      </trkpt>
      <trkpt lat="45.78077" lon="6.13127">
        <ele>874</ele>
        <time>2016-09-24T06:34:15Z</time>
      </trkpt>
      <trkpt lat="45.78072" lon="6.13124">
        <ele>875</ele>
        <time>2016-09-24T06:36:15Z</time>
      </trkpt>
      <trkpt lat="45.78036" lon="6.13096">
        <ele>882</ele>
        <time>2016-09-24T06:38:15Z</time>
      </trkpt>
      <trkpt lat="45.78027" lon="6.13091">
        <ele>883</ele>
        <time>2016-09-24T06:40:15Z</time>
      </trkpt>
      <trkpt lat="45.78019" lon="6.1309">
        <ele>883</ele>
        <time>2016-09-24T06:42:15Z</time>
      </trkpt>
      <trkpt lat="45.78016" lon="6.13089">
        <ele>883</ele>
        <time>2016-09-24T06:44:15Z</time>
      </trkpt>
      <trkpt lat="45.7801" lon="6.13089">
        <ele>883</ele>
        <time>2016-09-24T06:46:15Z</time>
      </trkpt>
      <trkpt lat="45.77999" lon="6.13092">
        <ele>883</ele>
        <time>2016-09-24T06:48:15Z</time>
      </trkpt>
      <trkpt lat="45.7799" lon="6.13096">
        <ele>883</ele>
        <time>2016-09-24T06:50:15Z</time>
      </trkpt>
      <trkpt lat="45.77982" lon="6.13106">
        <ele>883</ele>
        <time>2016-09-24T06:52:15Z</time>
      </trkpt>
      <trkpt lat="45.77977" lon="6.13114">
        <ele>883</ele>
        <time>2016-09-24T06:54:15Z</time>
      </trkpt>
      <trkpt lat="45.77972" lon="6.13124">
        <ele>882</ele>
        <time>2016-09-24T06:56:15Z</time>
      </trkpt>
      <trkpt lat="45.77966" lon="6.13146">
        <ele>881</ele>
        <time>2016-09-24T06:58:15Z</time>
      </trkpt>
      <trkpt lat="45.77958" lon="6.13176">
        <ele>879</ele>
        <time>2016-09-24T07:00:15Z</time>
      </trkpt>
      <trkpt lat="45.77954" lon="6.13191">
        <ele>877</ele>
        <time>2016-09-24T07:02:15Z</time>
      </trkpt>
      <trkpt lat="45.7795" lon="6.132">
        <ele>877</ele>
        <time>2016-09-24T07:04:15Z</time>
      </trkpt>
      <trkpt lat="45.77947" lon="6.13208">
        <ele>876</ele>
        <time>2016-09-24T07:06:15Z</time>
      </trkpt>
      <trkpt lat="45.77942" lon="6.13214">
        <ele>876</ele>
        <time>2016-09-24T07:08:15Z</time>
      </trkpt>
      <trkpt lat="45.77936" lon="6.13222">
        <ele>876</ele>
        <time>2016-09-24T07:10:15Z</time>
      </trkpt>
      <trkpt lat="45.77929" lon="6.1323">
        <ele>876</ele>
        <time>2016-09-24T07:12:15Z</time>
      </trkpt>
      <trkpt lat="45.77918" lon="6.13239">
        <ele>877</ele>
        <time>2016-09-24T07:14:15Z</time>
      </trkpt>
      <trkpt lat="45.77914" lon="6.13243">
        <ele>876</ele>
        <time>2016-09-24T07:16:15Z</time>
      </trkpt>
      <trkpt lat="45.77898" lon="6.13256">
        <ele>875</ele>
        <time>2016-09-24T07:18:15Z</time>
      </trkpt>
      <trkpt lat="45.77886" lon="6.13264">
        <ele>875</ele>
        <time>2016-09-24T07:20:15Z</time>
      </trkpt>
      <trkpt lat="45.77878" lon="6.13269">
        <ele>874</ele>
        <time>2016-09-24T07:22:15Z</time>
      </trkpt>
      <trkpt lat="45.77867" lon="6.13273">
        <ele>875</ele>
        <time>2016-09-24T07:24:15Z</time>
      </trkpt>
      <trkpt lat="45.77852" lon="6.13274">
        <ele>875</ele>
        <time>2016-09-24T07:26:15Z</time>
      </trkpt>
      <trkpt lat="45.77842" lon="6.13273">
        <ele>876</ele>
        <time>2016-09-24T07:28:15Z</time>
      </trkpt>
      <trkpt lat="45.77825" lon="6.13267">
        <ele>878</ele>
        <time>2016-09-24T07:30:15Z</time>
      </trkpt>
      <trkpt lat="45.7781" lon="6.13262">
        <ele>879</ele>
        <time>2016-09-24T07:32:15Z</time>
      </trkpt>
      <trkpt lat="45.77783" lon="6.13254">
        <ele>881</ele>
        <time>2016-09-24T07:34:15Z</time>
      </trkpt>
      <trkpt lat="45.7776" lon="6.1325">
        <ele>882</ele>
        <time>2016-09-24T07:36:15Z</time>
      </trkpt>
      <trkpt lat="45.77752" lon="6.13251">
        <ele>882</ele>
        <time>2016-09-24T07:38:15Z</time>
      </trkpt>
      <trkpt lat="45.77744" lon="6.13254">
        <ele>882</ele>
        <time>2016-09-24T07:40:15Z</time>
      </trkpt>
      <trkpt lat="45.77706" lon="6.13276">
        <ele>882</ele>
        <time>2016-09-24T07:42:15Z</time>
      </trkpt>
      <trkpt lat="45.77696" lon="6.13279">
        <ele>882</ele>
        <time>2016-09-24T07:44:15Z</time>
      </trkpt>
      <trkpt lat="45.77683" lon="6.13281">
        <ele>883</ele>
        <time>2016-09-24T07:46:15Z</time>
      </trkpt>
      <trkpt lat="45.77673" lon="6.13282">
        <ele>883</ele>
        <time>2016-09-24T07:48:15Z</time>
      </trkpt>
      <trkpt lat="45.77657" lon="6.1328">
        <ele>885</ele>
        <time>2016-09-24T07:50:15Z</time>
      </trkpt>
      <trkpt lat="45.77638" lon="6.13278">
        <ele>886</ele>
        <time>2016-09-24T07:52:15Z</time>
      </trkpt>
      <trkpt lat="45.7762" lon="6.13277">
        <ele>888</ele>
        <time>2016-09-24T07:54:15Z</time>
      </trkpt>
      <trkpt lat="45.77595" lon="6.13275">
        <ele>890</ele>
        <time>2016-09-24T07:56:15Z</time>
      </trkpt>
      <trkpt lat="45.77587" lon="6.13274">
        <ele>890</ele>
        <time>2016-09-24T07:58:15Z</time>
      </trkpt>
      <trkpt lat="45.77575" lon="6.13276">
        <ele>891</ele>
        <time>2016-09-24T08:00:15Z</time>
      </trkpt>
      <trkpt lat="45.77564" lon="6.1328">
        <ele>891</ele>
        <time>2016-09-24T08:02:15Z</time>
      </trkpt>
      <trkpt lat="45.77547" lon="6.13289">
        <ele>891</ele>
        <time>2016-09-24T08:04:15Z</time>
      </trkpt>
      <trkpt lat="45.77538" lon="6.13294">
        <ele>890</ele>
        <time>2016-09-24T08:06:15Z</time>
      </trkpt>
      <trkpt lat="45.77528" lon="6.13297">
        <ele>891</ele>
        <time>2016-09-24T08:08:15Z</time>
      </trkpt>
      <trkpt lat="45.77522" lon="6.13296">
        <ele>891</ele>
        <time>2016-09-24T08:10:15Z</time>
      </trkpt>
      <trkpt lat="45.77513" lon="6.13292">
        <ele>892</ele>
        <time>2016-09-24T08:12:15Z</time>
      </trkpt>
      <trkpt lat="45.77504" lon="6.13287">
        <ele>893</ele>
        <time>2016-09-24T08:14:15Z</time>
      </trkpt>
      <trkpt lat="45.77496" lon="6.13282">
        <ele>894</ele>
        <time>2016-09-24T08:16:15Z</time>
      </trkpt>
      <trkpt lat="45.77471" lon="6.13264">
        <ele>896</ele>
        <time>2016-09-24T08:18:15Z</time>
      </trkpt>
      <trkpt lat="45.77463" lon="6.13258">
        <ele>896</ele>
        <time>2016-09-24T08:20:15Z</time>
      </trkpt>
      <trkpt lat="45.77456" lon="6.13257">
        <ele>896</ele>
        <time>2016-09-24T08:22:15Z</time>
      </trkpt>
      <trkpt lat="45.77448" lon="6.13258">
        <ele>896</ele>
        <time>2016-09-24T08:24:15Z</time>
      </trkpt>
      <trkpt lat="45.77442" lon="6.1326">
        <ele>896</ele>
        <time>2016-09-24T08:26:15Z</time>
      </trkpt>
      <trkpt lat="45.77434" lon="6.13265">
        <ele>896</ele>
        <time>2016-09-24T08:28:15Z</time>
      </trkpt>
      <trkpt lat="45.77422" lon="6.13278">
        <ele>895</ele>
        <time>2016-09-24T08:30:15Z</time>
      </trkpt>
      <trkpt lat="45.77406" lon="6.13294">
        <ele>895</ele>
        <time>2016-09-24T08:32:15Z</time>
      </trkpt>
      <trkpt lat="45.77401" lon="6.13298">
        <ele>895</ele>
        <time>2016-09-24T08:34:15Z</time>
      </trkpt>
      <trkpt lat="45.77396" lon="6.133">
        <ele>894</ele>
        <time>2016-09-24T08:36:15Z</time>
      </trkpt>
      <trkpt lat="45.77391" lon="6.13302">
        <ele>894</ele>
        <time>2016-09-24T08:38:15Z</time>
      </trkpt>
      <trkpt lat="45.77387" lon="6.13304">
        <ele>894</ele>
        <time>2016-09-24T08:40:15Z</time>
      </trkpt>
      <trkpt lat="45.7738" lon="6.13304">
        <ele>894</ele>
        <time>2016-09-24T08:42:15Z</time>
      </trkpt>
      <trkpt lat="45.77373" lon="6.13303">
        <ele>894</ele>
        <time>2016-09-24T08:44:15Z</time>
      </trkpt>
      <trkpt lat="45.77368" lon="6.13302">
        <ele>894</ele>
        <time>2016-09-24T08:46:15Z</time>
      </trkpt>
      <trkpt lat="45.77363" lon="6.13299">
        <ele>894</ele>
        <time>2016-09-24T08:48:15Z</time>
      </trkpt>
      <trkpt lat="45.77354" lon="6.13293">
        <ele>894</ele>
        <time>2016-09-24T08:50:15Z</time>
      </trkpt>
      <trkpt lat="45.77293" lon="6.13239">
        <ele>896</ele>
        <time>2016-09-24T08:52:15Z</time>
      </trkpt>
      <trkpt lat="45.77278" lon="6.13227">
        <ele>897</ele>
        <time>2016-09-24T08:54:15Z</time>
      </trkpt>
      <trkpt lat="45.77269" lon="6.1322">
        <ele>897</ele>
        <time>2016-09-24T08:56:15Z</time>
      </trkpt>
      <trkpt lat="45.77259" lon="6.13215">
        <ele>897</ele>
        <time>2016-09-24T08:58:15Z</time>
      </trkpt>
      <trkpt lat="45.77242" lon="6.13205">
        <ele>898</ele>
        <time>2016-09-24T09:00:15Z</time>
      </trkpt>
      <trkpt lat="45.77208" lon="6.13187">
        <ele>899</ele>
        <time>2016-09-24T09:02:15Z</time>
      </trkpt>
      <trkpt lat="45.772" lon="6.13182">
        <ele>900</ele>
        <time>2016-09-24T09:04:15Z</time>
      </trkpt>
      <trkpt lat="45.77192" lon="6.13175">
        <ele>900</ele>
        <time>2016-09-24T09:06:15Z</time>
      </trkpt>
      <trkpt lat="45.77184" lon="6.13168">
        <ele>900</ele>
        <time>2016-09-24T09:08:15Z</time>
      </trkpt>
      <trkpt lat="45.77184" lon="6.13168">
        <ele>900</ele>
        <time>2016-09-24T09:10:15Z</time>
      </trkpt>
      <trkpt lat="45.77195" lon="6.13109">
        <ele>903</ele>
        <time>2016-09-24T09:12:15Z</time>
      </trkpt>
      <trkpt lat="45.77196" lon="6.131">
        <ele>904</ele>
        <time>2016-09-24T09:14:15Z</time>
      </trkpt>
      <trkpt lat="45.77199" lon="6.13072">
        <ele>905</ele>
        <time>2016-09-24T09:16:15Z</time>
      </trkpt>
      <trkpt lat="45.77203" lon="6.13026">
        <ele>906</ele>
        <time>2016-09-24T09:18:15Z</time>
      </trkpt>
      <trkpt lat="45.77204" lon="6.13018">
        <ele>906</ele>
        <time>2016-09-24T09:20:15Z</time>
      </trkpt>
      <trkpt lat="45.77204" lon="6.13018">
        <ele>906</ele>
        <time>2016-09-24T09:22:15Z</time>
      </trkpt>
      <trkpt lat="45.77202" lon="6.13017">
        <ele>906</ele>
        <time>2016-09-24T09:24:15Z</time>
      </trkpt>
      <trkpt lat="45.77201" lon="6.13016">
        <ele>906</ele>
        <time>2016-09-24T09:26:15Z</time>
      </trkpt>
      <trkpt lat="45.772" lon="6.13015">
        <ele>906</ele>
        <time>2016-09-24T09:28:15Z</time>
      </trkpt>
      <trkpt lat="45.77199" lon="6.13014">
        <ele>906</ele>
        <time>2016-09-24T09:30:15Z</time>
      </trkpt>
      <trkpt lat="45.77198" lon="6.13011">
        <ele>906</ele>
        <time>2016-09-24T09:32:15Z</time>
      </trkpt>
      <trkpt lat="45.77197" lon="6.13009">
        <ele>906</ele>
        <time>2016-09-24T09:34:15Z</time>
      </trkpt>
      <trkpt lat="45.77197" lon="6.13004">
        <ele>907</ele>
        <time>2016-09-24T09:36:15Z</time>
      </trkpt>
      <trkpt lat="45.77196" lon="6.12984">
        <ele>907</ele>
        <time>2016-09-24T09:38:15Z</time>
      </trkpt>
      <trkpt lat="45.77195" lon="6.12971">
        <ele>906</ele>
        <time>2016-09-24T09:40:15Z</time>
      </trkpt>
      <trkpt lat="45.77196" lon="6.12966">
        <ele>906</ele>
        <time>2016-09-24T09:42:15Z</time>
      </trkpt>
      <trkpt lat="45.77198" lon="6.12954">
        <ele>906</ele>
        <time>2016-09-24T09:44:15Z</time>
      </trkpt>
      <trkpt lat="45.772" lon="6.12945">
        <ele>907</ele>
        <time>2016-09-24T09:46:15Z</time>
      </trkpt>
      <trkpt lat="45.77203" lon="6.12934">
        <ele>907</ele>
        <time>2016-09-24T09:48:15Z</time>
      </trkpt>
      <trkpt lat="45.77211" lon="6.12909">
        <ele>907</ele>
        <time>2016-09-24T09:50:15Z</time>
      </trkpt>
      <trkpt lat="45.77219" lon="6.12887">
        <ele>909</ele>
        <time>2016-09-24T09:52:15Z</time>
      </trkpt>
      <trkpt lat="45.77227" lon="6.12871">
        <ele>910</ele>
        <time>2016-09-24T09:54:15Z</time>
      </trkpt>
      <trkpt lat="45.77235" lon="6.12855">
        <ele>911</ele>
        <time>2016-09-24T09:56:15Z</time>
      </trkpt>
      <trkpt lat="45.77246" lon="6.12838">
        <ele>913</ele>
        <time>2016-09-24T09:58:15Z</time>
      </trkpt>
      <trkpt lat="45.77256" lon="6.1282">
        <ele>914</ele>
        <time>2016-09-24T10:00:15Z</time>
      </trkpt>
      <trkpt lat="45.77268" lon="6.128">
        <ele>917</ele>
        <time>2016-09-24T10:02:15Z</time>
      </trkpt>
      <trkpt lat="45.77281" lon="6.12776">
        <ele>920</ele>
        <time>2016-09-24T10:04:15Z</time>
      </trkpt>
      <trkpt lat="45.7729" lon="6.12757">
        <ele>922</ele>
        <time>2016-09-24T10:06:15Z</time>
      </trkpt>
      <trkpt lat="45.77294" lon="6.1275">
        <ele>923</ele>
        <time>2016-09-24T10:08:15Z</time>
      </trkpt>
      <trkpt lat="45.77323" lon="6.12637">
        <ele>936</ele>
        <time>2016-09-24T10:10:15Z</time>
      </trkpt>
      <trkpt lat="45.77323" lon="6.12637">
        <ele>936</ele>
        <time>2016-09-24T10:12:15Z</time>
      </trkpt>
      <trkpt lat="45.77328" lon="6.1264">
        <ele>936</ele>
        <time>2016-09-24T10:14:15Z</time>
      </trkpt>
      <trkpt lat="45.77341" lon="6.12645">
        <ele>937</ele>
        <time>2016-09-24T10:16:15Z</time>
      </trkpt>
      <trkpt lat="45.77344" lon="6.12647">
        <ele>937</ele>
        <time>2016-09-24T10:18:15Z</time>
      </trkpt>
      <trkpt lat="45.77346" lon="6.12648">
        <ele>937</ele>
        <time>2016-09-24T10:20:15Z</time>
      </trkpt>
      <trkpt lat="45.77347" lon="6.12649">
        <ele>936</ele>
        <time>2016-09-24T10:22:15Z</time>
      </trkpt>
      <trkpt lat="45.77348" lon="6.1265">
        <ele>936</ele>
        <time>2016-09-24T10:24:15Z</time>
      </trkpt>
      <trkpt lat="45.77348" lon="6.1265">
        <ele>936</ele>
        <time>2016-09-24T10:26:15Z</time>
      </trkpt>
      <trkpt lat="45.77353" lon="6.12649">
        <ele>937</ele>
        <time>2016-09-24T10:28:15Z</time>
      </trkpt>
      <trkpt lat="45.77356" lon="6.12649">
        <ele>937</ele>
        <time>2016-09-24T10:30:15Z</time>
      </trkpt>
      <trkpt lat="45.77359" lon="6.12649">
        <ele>937</ele>
        <time>2016-09-24T10:32:15Z</time>
      </trkpt>
      <trkpt lat="45.77362" lon="6.12649">
        <ele>937</ele>
        <time>2016-09-24T10:34:15Z</time>
      </trkpt>
      <trkpt lat="45.77367" lon="6.1265">
        <ele>937</ele>
        <time>2016-09-24T10:36:15Z</time>
      </trkpt>
      <trkpt lat="45.77373" lon="6.12653">
        <ele>937</ele>
        <time>2016-09-24T10:38:15Z</time>
      </trkpt>
      <trkpt lat="45.77393" lon="6.12661">
        <ele>937</ele>
        <time>2016-09-24T10:40:15Z</time>
      </trkpt>
      <trkpt lat="45.77412" lon="6.12669">
        <ele>937</ele>
        <time>2016-09-24T10:42:15Z</time>
      </trkpt>
      <trkpt lat="45.77414" lon="6.12669">
        <ele>938</ele>
        <time>2016-09-24T10:44:15Z</time>
      </trkpt>
      <trkpt lat="45.77414" lon="6.12669">
        <ele>938</ele>
        <time>2016-09-24T10:46:15Z</time>
      </trkpt>
      <trkpt lat="45.77418" lon="6.12663">
        <ele>938</ele>
        <time>2016-09-24T10:48:15Z</time>
      </trkpt>
      <trkpt lat="45.77422" lon="6.12658">
        <ele>939</ele>
        <time>2016-09-24T10:50:15Z</time>
      </trkpt>
      <trkpt lat="45.77429" lon="6.12653">
        <ele>940</ele>
        <time>2016-09-24T10:52:15Z</time>
      </trkpt>
      <trkpt lat="45.77441" lon="6.12649">
        <ele>941</ele>
        <time>2016-09-24T10:54:15Z</time>
      </trkpt>
      <trkpt lat="45.77447" lon="6.12645">
        <ele>942</ele>
        <time>2016-09-24T10:56:15Z</time>
      </trkpt>
      <trkpt lat="45.77464" lon="6.12634">
        <ele>945</ele>
        <time>2016-09-24T10:58:15Z</time>
      </trkpt>
      <trkpt lat="45.77471" lon="6.12629">
        <ele>946</ele>
        <time>2016-09-24T11:00:15Z</time>
      </trkpt>
      <trkpt lat="45.77485" lon="6.12619">
        <ele>948</ele>
        <time>2016-09-24T11:02:15Z</time>
      </trkpt>
      <trkpt lat="45.77503" lon="6.12607">
        <ele>951</ele>
        <time>2016-09-24T11:04:15Z</time>
      </trkpt>
      <trkpt lat="45.77517" lon="6.12597">
        <ele>953</ele>
        <time>2016-09-24T11:06:15Z</time>
      </trkpt>
      <trkpt lat="45.77525" lon="6.1259">
        <ele>954</ele>
        <time>2016-09-24T11:08:15Z</time>
      </trkpt>
      <trkpt lat="45.77531" lon="6.12582">
        <ele>956</ele>
        <time>2016-09-24T11:10:15Z</time>
      </trkpt>
      <trkpt lat="45.77538" lon="6.12572">
        <ele>959</ele>
        <time>2016-09-24T11:12:15Z</time>
      </trkpt>
      <trkpt lat="45.77543" lon="6.12562">
        <ele>961</ele>
        <time>2016-09-24T11:14:15Z</time>
      </trkpt>
      <trkpt lat="45.77553" lon="6.12547">
        <ele>965</ele>
        <time>2016-09-24T11:16:15Z</time>
      </trkpt>
      <trkpt lat="45.7757" lon="6.12528">
        <ele>970</ele>
        <time>2016-09-24T11:18:15Z</time>
      </trkpt>
      <trkpt lat="45.77581" lon="6.12515">
        <ele>974</ele>
        <time>2016-09-24T11:20:15Z</time>
      </trkpt>
      <trkpt lat="45.77597" lon="6.12504">
        <ele>978</ele>
        <time>2016-09-24T11:22:15Z</time>
      </trkpt>
      <trkpt lat="45.7761" lon="6.12496">
        <ele>981</ele>
        <time>2016-09-24T11:24:15Z</time>
      </trkpt>
      <trkpt lat="45.77623" lon="6.12487">
        <ele>985</ele>
        <time>2016-09-24T11:26:15Z</time>
      </trkpt>
      <trkpt lat="45.77626" lon="6.12486">
        <ele>985</ele>
        <time>2016-09-24T11:28:15Z</time>
      </trkpt>
      <trkpt lat="45.77636" lon="6.12482">
        <ele>988</ele>
        <time>2016-09-24T11:30:15Z</time>
      </trkpt>
      <trkpt lat="45.77645" lon="6.12482">
        <ele>989</ele>
        <time>2016-09-24T11:32:15Z</time>
      </trkpt>
      <trkpt lat="45.77647" lon="6.12475">
        <ele>991</ele>
        <time>2016-09-24T11:34:15Z</time>
      </trkpt>
      <trkpt lat="45.7766" lon="6.12437">
        <ele>1001</ele>
        <time>2016-09-24T11:36:15Z</time>
      </trkpt>
      <trkpt lat="45.77671" lon="6.12414">
        <ele>1007</ele>
        <time>2016-09-24T11:38:15Z</time>
      </trkpt>
      <trkpt lat="45.77678" lon="6.12403">
        <ele>1010</ele>
        <time>2016-09-24T11:40:15Z</time>
      </trkpt>
      <trkpt lat="45.77691" lon="6.12385">
        <ele>1014</ele>
        <time>2016-09-24T11:42:15Z</time>
      </trkpt>
      <trkpt lat="45.77699" lon="6.12371">
        <ele>1018</ele>
        <time>2016-09-24T11:44:15Z</time>
      </trkpt>
      <trkpt lat="45.77705" lon="6.1235">
        <ele>1024</ele>
        <time>2016-09-24T11:46:15Z</time>
      </trkpt>
      <trkpt lat="45.77718" lon="6.12335">
        <ele>1029</ele>
        <time>2016-09-24T11:48:15Z</time>
      </trkpt>
      <trkpt lat="45.77727" lon="6.12318">
        <ele>1034</ele>
        <time>2016-09-24T11:50:15Z</time>
      </trkpt>
      <trkpt lat="45.77734" lon="6.12297">
        <ele>1039</ele>
        <time>2016-09-24T11:52:15Z</time>
      </trkpt>
      <trkpt lat="45.77736" lon="6.12281">
        <ele>1043</ele>
        <time>2016-09-24T11:54:15Z</time>
      </trkpt>
      <trkpt lat="45.77732" lon="6.1226">
        <ele>1046</ele>
        <time>2016-09-24T11:56:15Z</time>
      </trkpt>
      <trkpt lat="45.77723" lon="6.12236">
        <ele>1052</ele>
        <time>2016-09-24T11:58:15Z</time>
      </trkpt>
      <trkpt lat="45.77715" lon="6.1221">
        <ele>1059</ele>
        <time>2016-09-24T12:00:15Z</time>
      </trkpt>
      <trkpt lat="45.77712" lon="6.12175">
        <ele>1069</ele>
        <time>2016-09-24T12:02:15Z</time>
      </trkpt>
      <trkpt lat="45.77707" lon="6.12157">
        <ele>1073</ele>
        <time>2016-09-24T12:04:15Z</time>
      </trkpt>
      <trkpt lat="45.77707" lon="6.12157">
        <ele>1073</ele>
        <time>2016-09-24T12:06:15Z</time>
      </trkpt>
      <trkpt lat="45.77748" lon="6.12145">
        <ele>1086</ele>
        <time>2016-09-24T12:08:15Z</time>
      </trkpt>
      <trkpt lat="45.77756" lon="6.1214">
        <ele>1089</ele>
        <time>2016-09-24T12:10:15Z</time>
      </trkpt>
      <trkpt lat="45.77757" lon="6.12138">
        <ele>1089</ele>
        <time>2016-09-24T12:12:15Z</time>
      </trkpt>
      <trkpt lat="45.77756" lon="6.12134">
        <ele>1090</ele>
        <time>2016-09-24T12:14:15Z</time>
      </trkpt>
      <trkpt lat="45.77748" lon="6.12126">
        <ele>1091</ele>
        <time>2016-09-24T12:16:15Z</time>
      </trkpt>
      <trkpt lat="45.77738" lon="6.12116">
        <ele>1091</ele>
        <time>2016-09-24T12:18:15Z</time>
      </trkpt>
      <trkpt lat="45.77738" lon="6.12112">
        <ele>1093</ele>
        <time>2016-09-24T12:20:15Z</time>
      </trkpt>
      <trkpt lat="45.7774" lon="6.12103">
        <ele>1095</ele>
        <time>2016-09-24T12:22:15Z</time>
      </trkpt>
      <trkpt lat="45.77749" lon="6.12095">
        <ele>1099</ele>
        <time>2016-09-24T12:24:15Z</time>
      </trkpt>
      <trkpt lat="45.77778" lon="6.12088">
        <ele>1108</ele>
        <time>2016-09-24T12:26:15Z</time>
      </trkpt>
      <trkpt lat="45.77791" lon="6.12082">
        <ele>1114</ele>
        <time>2016-09-24T12:28:15Z</time>
      </trkpt>
      <trkpt lat="45.77797" lon="6.12076">
        <ele>1118</ele>
        <time>2016-09-24T12:30:15Z</time>
      </trkpt>
      <trkpt lat="45.77802" lon="6.12064">
        <ele>1123</ele>
        <time>2016-09-24T12:32:15Z</time>
      </trkpt>
      <trkpt lat="45.77816" lon="6.12028">
        <ele>1139</ele>
        <time>2016-09-24T12:34:15Z</time>
      </trkpt>
      <trkpt lat="45.77822" lon="6.12014">
        <ele>1144</ele>
        <time>2016-09-24T12:36:15Z</time>
      </trkpt>
      <trkpt lat="45.77823" lon="6.1201">
        <ele>1146</ele>
        <time>2016-09-24T12:38:15Z</time>
      </trkpt>
      <trkpt lat="45.77826" lon="6.12006">
        <ele>1148</ele>
        <time>2016-09-24T12:40:15Z</time>
      </trkpt>
      <trkpt lat="45.77832" lon="6.12005">
        <ele>1149</ele>
        <time>2016-09-24T12:42:15Z</time>
      </trkpt>
      <trkpt lat="45.7784" lon="6.11998">
        <ele>1153</ele>
        <time>2016-09-24T12:44:15Z</time>
      </trkpt>
      <trkpt lat="45.77845" lon="6.11992">
        <ele>1155</ele>
        <time>2016-09-24T12:46:15Z</time>
      </trkpt>
      <trkpt lat="45.77858" lon="6.11988">
        <ele>1159</ele>
        <time>2016-09-24T12:48:15Z</time>
      </trkpt>
      <trkpt lat="45.77877" lon="6.11984">
        <ele>1165</ele>
        <time>2016-09-24T12:50:15Z</time>
      </trkpt>
      <trkpt lat="45.77898" lon="6.11979">
        <ele>1171</ele>
        <time>2016-09-24T12:52:15Z</time>
      </trkpt>
      <trkpt lat="45.77908" lon="6.11979">
        <ele>1174</ele>
        <time>2016-09-24T12:54:15Z</time>
      </trkpt>
      <trkpt lat="45.77928" lon="6.11982">
        <ele>1178</ele>
        <time>2016-09-24T12:56:15Z</time>
      </trkpt>
      <trkpt lat="45.77956" lon="6.11987">
        <ele>1182</ele>
        <time>2016-09-24T12:58:15Z</time>
      </trkpt>
      <trkpt lat="45.77966" lon="6.1199">
        <ele>1183</ele>
        <time>2016-09-24T13:00:15Z</time>
      </trkpt>
      <trkpt lat="45.7798" lon="6.11989">
        <ele>1187</ele>
        <time>2016-09-24T13:02:15Z</time>
      </trkpt>
      <trkpt lat="45.78" lon="6.1199">
        <ele>1191</ele>
        <time>2016-09-24T13:04:15Z</time>
      </trkpt>
      <trkpt lat="45.7803" lon="6.11998">
        <ele>1196</ele>
        <time>2016-09-24T13:06:15Z</time>
      </trkpt>
      <trkpt lat="45.78038" lon="6.12001">
        <ele>1198</ele>
        <time>2016-09-24T13:08:15Z</time>
      </trkpt>
      <trkpt lat="45.7804" lon="6.12">
        <ele>1199</ele>
        <time>2016-09-24T13:10:15Z</time>
      </trkpt>
      <trkpt lat="45.78041" lon="6.11999">
        <ele>1199</ele>
        <time>2016-09-24T13:12:15Z</time>
      </trkpt>
      <trkpt lat="45.78042" lon="6.11997">
        <ele>1200</ele>
        <time>2016-09-24T13:14:15Z</time>
      </trkpt>
      <trkpt lat="45.78042" lon="6.11992">
        <ele>1202</ele>
        <time>2016-09-24T13:16:15Z</time>
      </trkpt>
      <trkpt lat="45.78032" lon="6.11973">
        <ele>1206</ele>
        <time>2016-09-24T13:18:15Z</time>
      </trkpt>
      <trkpt lat="45.78031" lon="6.11971">
        <ele>1206</ele>
        <time>2016-09-24T13:20:15Z</time>
      </trkpt>
      <trkpt lat="45.78013" lon="6.11935">
        <ele>1215</ele>
        <time>2016-09-24T13:22:15Z</time>
      </trkpt>
      <trkpt lat="45.78007" lon="6.1193">
        <ele>1215</ele>
        <time>2016-09-24T13:24:15Z</time>
      </trkpt>
      <trkpt lat="45.77989" lon="6.11903">
        <ele>1221</ele>
        <time>2016-09-24T13:26:15Z</time>
      </trkpt>
      <trkpt lat="45.7797" lon="6.11856">
        <ele>1237</ele>
        <time>2016-09-24T13:28:15Z</time>
      </trkpt>
      <trkpt lat="45.77953" lon="6.11829">
        <ele>1244</ele>
        <time>2016-09-24T13:30:15Z</time>
      </trkpt>
      <trkpt lat="45.77942" lon="6.11815">
        <ele>1246</ele>
        <time>2016-09-24T13:32:15Z</time>
      </trkpt>
      <trkpt lat="45.77925" lon="6.11803">
        <ele>1245</ele>
        <time>2016-09-24T13:34:15Z</time>
      </trkpt>
      <trkpt lat="45.77911" lon="6.11797">
        <ele>1243</ele>
        <time>2016-09-24T13:36:15Z</time>
      </trkpt>
      <trkpt lat="45.77902" lon="6.11784">
        <ele>1246</ele>
        <time>2016-09-24T13:38:15Z</time>
      </trkpt>
      <trkpt lat="45.77892" lon="6.11751">
        <ele>1258</ele>
        <time>2016-09-24T13:40:15Z</time>
      </trkpt>
      <trkpt lat="45.77883" lon="6.11732">
        <ele>1264</ele>
        <time>2016-09-24T13:42:15Z</time>
      </trkpt>
      <trkpt lat="45.7787" lon="6.11712">
        <ele>1270</ele>
        <time>2016-09-24T13:44:15Z</time>
      </trkpt>
      <trkpt lat="45.77861" lon="6.11699">
        <ele>1274</ele>
        <time>2016-09-24T13:46:15Z</time>
      </trkpt>
      <trkpt lat="45.77848" lon="6.11689">
        <ele>1277</ele>
        <time>2016-09-24T13:48:15Z</time>
      </trkpt>
      <trkpt lat="45.77845" lon="6.11686">
        <ele>1277</ele>
        <time>2016-09-24T13:50:15Z</time>
      </trkpt>
      <trkpt lat="45.77845" lon="6.1168">
        <ele>1280</ele>
        <time>2016-09-24T13:52:15Z</time>
      </trkpt>
      <trkpt lat="45.77846" lon="6.11675">
        <ele>1283</ele>
        <time>2016-09-24T13:54:15Z</time>
      </trkpt>
      <trkpt lat="45.7786" lon="6.11674">
        <ele>1286</ele>
        <time>2016-09-24T13:56:15Z</time>
      </trkpt>
      <trkpt lat="45.77863" lon="6.11675">
        <ele>1286</ele>
        <time>2016-09-24T13:58:15Z</time>
      </trkpt>
      <trkpt lat="45.77867" lon="6.11674">
        <ele>1287</ele>
        <time>2016-09-24T14:00:15Z</time>
      </trkpt>
      <trkpt lat="45.7787" lon="6.11672">
        <ele>1288</ele>
        <time>2016-09-24T14:02:15Z</time>
      </trkpt>
      <trkpt lat="45.77871" lon="6.11669">
        <ele>1290</ele>
        <time>2016-09-24T14:04:15Z</time>
      </trkpt>
      <trkpt lat="45.77871" lon="6.1166">
        <ele>1294</ele>
        <time>2016-09-24T14:06:15Z</time>
      </trkpt>
      <trkpt lat="45.77868" lon="6.11656">
        <ele>1295</ele>
        <time>2016-09-24T14:08:15Z</time>
      </trkpt>
      <trkpt lat="45.77863" lon="6.11653">
        <ele>1295</ele>
        <time>2016-09-24T14:10:15Z</time>
      </trkpt>
      <trkpt lat="45.7785" lon="6.1165">
        <ele>1294</ele>
        <time>2016-09-24T14:12:15Z</time>
      </trkpt>
      <trkpt lat="45.7784" lon="6.11647">
        <ele>1293</ele>
        <time>2016-09-24T14:14:15Z</time>
      </trkpt>
      <trkpt lat="45.77834" lon="6.11644">
        <ele>1293</ele>
        <time>2016-09-24T14:16:15Z</time>
      </trkpt>
      <trkpt lat="45.77827" lon="6.11641">
        <ele>1294</ele>
        <time>2016-09-24T14:18:15Z</time>
      </trkpt>
      <trkpt lat="45.77825" lon="6.11635">
        <ele>1296</ele>
        <time>2016-09-24T14:20:15Z</time>
      </trkpt>
      <trkpt lat="45.77826" lon="6.1163">
        <ele>1298</ele>
        <time>2016-09-24T14:22:15Z</time>
      </trkpt>
      <trkpt lat="45.77832" lon="6.11625">
        <ele>1301</ele>
        <time>2016-09-24T14:24:15Z</time>
      </trkpt>
      <trkpt lat="45.77839" lon="6.11622">
        <ele>1303</ele>
        <time>2016-09-24T14:26:15Z</time>
      </trkpt>
      <trkpt lat="45.77844" lon="6.11618">
        <ele>1306</ele>
        <time>2016-09-24T14:28:15Z</time>
      </trkpt>
      <trkpt lat="45.77848" lon="6.1161">
        <ele>1310</ele>
        <time>2016-09-24T14:30:15Z</time>
      </trkpt>
      <trkpt lat="45.77849" lon="6.11605">
        <ele>1312</ele>
        <time>2016-09-24T14:32:15Z</time>
      </trkpt>
      <trkpt lat="45.77848" lon="6.11599">
        <ele>1315</ele>
        <time>2016-09-24T14:34:15Z</time>
      </trkpt>
      <trkpt lat="45.77841" lon="6.11594">
        <ele>1315</ele>
        <time>2016-09-24T14:36:15Z</time>
      </trkpt>
      <trkpt lat="45.77833" lon="6.11592">
        <ele>1314</ele>
        <time>2016-09-24T14:38:15Z</time>
      </trkpt>
      <trkpt lat="45.77824" lon="6.11589">
        <ele>1315</ele>
        <time>2016-09-24T14:40:15Z</time>
      </trkpt>
      <trkpt lat="45.77817" lon="6.11583">
        <ele>1317</ele>
        <time>2016-09-24T14:42:15Z</time>
      </trkpt>
      <trkpt lat="45.7781" lon="6.11577">
        <ele>1318</ele>
        <time>2016-09-24T14:44:15Z</time>
      </trkpt>
      <trkpt lat="45.77805" lon="6.11566">
        <ele>1322</ele>
        <time>2016-09-24T14:46:15Z</time>
      </trkpt>
      <trkpt lat="45.77801" lon="6.11554">
        <ele>1325</ele>
        <time>2016-09-24T14:48:15Z</time>
      </trkpt>
      <trkpt lat="45.77795" lon="6.11538">
        <ele>1330</ele>
        <time>2016-09-24T14:50:15Z</time>
      </trkpt>
      <trkpt lat="45.77793" lon="6.11532">
        <ele>1332</ele>
        <time>2016-09-24T14:52:15Z</time>
      </trkpt>
      <trkpt lat="45.77791" lon="6.11526">
        <ele>1333</ele>
        <time>2016-09-24T14:54:15Z</time>
      </trkpt>
      <trkpt lat="45.77791" lon="6.11521">
        <ele>1335</ele>
        <time>2016-09-24T14:56:15Z</time>
      </trkpt>
      <trkpt lat="45.77791" lon="6.11515">
        <ele>1337</ele>
        <time>2016-09-24T14:58:15Z</time>
      </trkpt>
      <trkpt lat="45.77792" lon="6.11509">
        <ele>1339</ele>
        <time>2016-09-24T15:00:15Z</time>
      </trkpt>
      <trkpt lat="45.77795" lon="6.11498">
        <ele>1344</ele>
        <time>2016-09-24T15:02:15Z</time>
      </trkpt>
      <trkpt lat="45.77798" lon="6.11491">
        <ele>1346</ele>
        <time>2016-09-24T15:04:15Z</time>
      </trkpt>
      <trkpt lat="45.77797" lon="6.11488">
        <ele>1347</ele>
        <time>2016-09-24T15:06:15Z</time>
      </trkpt>
      <trkpt lat="45.77796" lon="6.11483">
        <ele>1348</ele>
        <time>2016-09-24T15:08:15Z</time>
      </trkpt>
      <trkpt lat="45.77793" lon="6.11477">
        <ele>1349</ele>
        <time>2016-09-24T15:10:15Z</time>
      </trkpt>
      <trkpt lat="45.7779" lon="6.11471">
        <ele>1349</ele>
        <time>2016-09-24T15:12:15Z</time>
      </trkpt>
      <trkpt lat="45.77789" lon="6.11464">
        <ele>1351</ele>
        <time>2016-09-24T15:14:15Z</time>
      </trkpt>
      <trkpt lat="45.77789" lon="6.11457">
        <ele>1353</ele>
        <time>2016-09-24T15:16:15Z</time>
      </trkpt>
      <trkpt lat="45.77785" lon="6.11451">
        <ele>1353</ele>
        <time>2016-09-24T15:18:15Z</time>
      </trkpt>
      <trkpt lat="45.77781" lon="6.11447">
        <ele>1354</ele>
        <time>2016-09-24T15:20:15Z</time>
      </trkpt>
      <trkpt lat="45.77776" lon="6.11441">
        <ele>1354</ele>
        <time>2016-09-24T15:22:15Z</time>
      </trkpt>
      <trkpt lat="45.77773" lon="6.11432">
        <ele>1356</ele>
        <time>2016-09-24T15:24:15Z</time>
      </trkpt>
      <trkpt lat="45.77773" lon="6.11422">
        <ele>1358</ele>
        <time>2016-09-24T15:26:15Z</time>
      </trkpt>
      <trkpt lat="45.77774" lon="6.11409">
        <ele>1360</ele>
        <time>2016-09-24T15:28:15Z</time>
      </trkpt>
      <trkpt lat="45.77774" lon="6.11397">
        <ele>1361</ele>
        <time>2016-09-24T15:30:15Z</time>
      </trkpt>
      <trkpt lat="45.77776" lon="6.11386">
        <ele>1362</ele>
        <time>2016-09-24T15:32:15Z</time>
      </trkpt>
      <trkpt lat="45.77778" lon="6.11377">
        <ele>1363</ele>
        <time>2016-09-24T15:34:15Z</time>
      </trkpt>
      <trkpt lat="45.77782" lon="6.11367">
        <ele>1365</ele>
        <time>2016-09-24T15:36:15Z</time>
      </trkpt>
      <trkpt lat="45.77788" lon="6.11356">
        <ele>1367</ele>
        <time>2016-09-24T15:38:15Z</time>
      </trkpt>
      <trkpt lat="45.77794" lon="6.11347">
        <ele>1369</ele>
        <time>2016-09-24T15:40:15Z</time>
      </trkpt>
      <trkpt lat="45.778" lon="6.11341">
        <ele>1371</ele>
        <time>2016-09-24T15:42:15Z</time>
      </trkpt>
      <trkpt lat="45.77805" lon="6.11336">
        <ele>1373</ele>
        <time>2016-09-24T15:44:15Z</time>
      </trkpt>
      <trkpt lat="45.77811" lon="6.11334">
        <ele>1375</ele>
        <time>2016-09-24T15:46:15Z</time>
      </trkpt>
      <trkpt lat="45.77819" lon="6.11336">
        <ele>1377</ele>
        <time>2016-09-24T15:48:15Z</time>
      </trkpt>
      <trkpt lat="45.77826" lon="6.11338">
        <ele>1379</ele>
        <time>2016-09-24T15:50:15Z</time>
      </trkpt>
      <trkpt lat="45.77832" lon="6.11341">
        <ele>1380</ele>
        <time>2016-09-24T15:52:15Z</time>
      </trkpt>
      <trkpt lat="45.7784" lon="6.11347">
        <ele>1381</ele>
        <time>2016-09-24T15:54:15Z</time>
      </trkpt>
      <trkpt lat="45.77846" lon="6.11356">
        <ele>1381</ele>
        <time>2016-09-24T15:56:15Z</time>
      </trkpt>
      <trkpt lat="45.77853" lon="6.11359">
        <ele>1382</ele>
        <time>2016-09-24T15:58:15Z</time>
      </trkpt>
      <trkpt lat="45.7786" lon="6.1136">
        <ele>1383</ele>
        <time>2016-09-24T16:00:15Z</time>
      </trkpt>
      <trkpt lat="45.77865" lon="6.11361">
        <ele>1384</ele>
        <time>2016-09-24T16:02:15Z</time>
      </trkpt>
      <trkpt lat="45.77869" lon="6.11362">
        <ele>1385</ele>
        <time>2016-09-24T16:04:15Z</time>
      </trkpt>
      <trkpt lat="45.77875" lon="6.1136">
        <ele>1386</ele>
        <time>2016-09-24T16:06:15Z</time>
      </trkpt>
      <trkpt lat="45.77881" lon="6.11358">
        <ele>1388</ele>
        <time>2016-09-24T16:08:15Z</time>
      </trkpt>
      <trkpt lat="45.77886" lon="6.11352">
        <ele>1390</ele>
        <time>2016-09-24T16:10:15Z</time>
      </trkpt>
      <trkpt lat="45.77888" lon="6.11345">
        <ele>1391</ele>
        <time>2016-09-24T16:12:15Z</time>
      </trkpt>
      <trkpt lat="45.77889" lon="6.11337">
        <ele>1393</ele>
        <time>2016-09-24T16:14:15Z</time>
      </trkpt>
      <trkpt lat="45.7789" lon="6.11328">
        <ele>1394</ele>
        <time>2016-09-24T16:16:15Z</time>
      </trkpt>
      <trkpt lat="45.7789" lon="6.11318">
        <ele>1394</ele>
        <time>2016-09-24T16:18:15Z</time>
      </trkpt>
      <trkpt lat="45.7789" lon="6.11309">
        <ele>1395</ele>
        <time>2016-09-24T16:20:15Z</time>
      </trkpt>
      <trkpt lat="45.7789" lon="6.11296">
        <ele>1396</ele>
        <time>2016-09-24T16:22:15Z</time>
      </trkpt>
      <trkpt lat="45.7789" lon="6.11288">
        <ele>1397</ele>
        <time>2016-09-24T16:24:15Z</time>
      </trkpt>
      <trkpt lat="45.77891" lon="6.11275">
        <ele>1398</ele>
        <time>2016-09-24T16:26:15Z</time>
      </trkpt>
      <trkpt lat="45.77892" lon="6.11273">
        <ele>1399</ele>
        <time>2016-09-24T16:28:15Z</time>
      </trkpt>
      <trkpt lat="45.77894" lon="6.1127">
        <ele>1399</ele>
        <time>2016-09-24T16:30:15Z</time>
      </trkpt>
      <trkpt lat="45.77895" lon="6.11268">
        <ele>1400</ele>
        <time>2016-09-24T16:32:15Z</time>
      </trkpt>
      <trkpt lat="45.77898" lon="6.11264">
        <ele>1401</ele>
        <time>2016-09-24T16:34:15Z</time>
      </trkpt>
      <trkpt lat="45.779" lon="6.11262">
        <ele>1402</ele>
        <time>2016-09-24T16:36:15Z</time>
      </trkpt>
      <trkpt lat="45.77904" lon="6.11259">
        <ele>1403</ele>
        <time>2016-09-24T16:38:15Z</time>
      </trkpt>
      <trkpt lat="45.77917" lon="6.11249">
        <ele>1407</ele>
        <time>2016-09-24T16:40:15Z</time>
      </trkpt>
      <trkpt lat="45.7792" lon="6.11246">
        <ele>1408</ele>
        <time>2016-09-24T16:42:15Z</time>
      </trkpt>
      <trkpt lat="45.77923" lon="6.11243">
        <ele>1408</ele>
        <time>2016-09-24T16:44:15Z</time>
      </trkpt>
      <trkpt lat="45.77925" lon="6.11241">
        <ele>1409</ele>
        <time>2016-09-24T16:46:15Z</time>
      </trkpt>
      <trkpt lat="45.77926" lon="6.11239">
        <ele>1409</ele>
        <time>2016-09-24T16:48:15Z</time>
      </trkpt>
      <trkpt lat="45.77929" lon="6.11231">
        <ele>1410</ele>
        <time>2016-09-24T16:50:15Z</time>
      </trkpt>
      <trkpt lat="45.7793" lon="6.11223">
        <ele>1410</ele>
        <time>2016-09-24T16:52:15Z</time>
      </trkpt>
      <trkpt lat="45.77931" lon="6.11215">
        <ele>1411</ele>
        <time>2016-09-24T16:54:15Z</time>
      </trkpt>
      <trkpt lat="45.77932" lon="6.11201">
        <ele>1412</ele>
        <time>2016-09-24T16:56:15Z</time>
      </trkpt>
      <trkpt lat="45.77933" lon="6.1119">
        <ele>1413</ele>
        <time>2016-09-24T16:58:15Z</time>
      </trkpt>
      <trkpt lat="45.77932" lon="6.11175">
        <ele>1413</ele>
        <time>2016-09-24T17:00:15Z</time>
      </trkpt>
      <trkpt lat="45.77933" lon="6.11161">
        <ele>1413</ele>
        <time>2016-09-24T17:02:15Z</time>
      </trkpt>
      <trkpt lat="45.77934" lon="6.11153">
        <ele>1413</ele>
        <time>2016-09-24T17:04:15Z</time>
      </trkpt>
      <trkpt lat="45.77936" lon="6.11145">
        <ele>1413</ele>
        <time>2016-09-24T17:06:15Z</time>
      </trkpt>
      <trkpt lat="45.7794" lon="6.11137">
        <ele>1413</ele>
        <time>2016-09-24T17:08:15Z</time>
      </trkpt>
      <trkpt lat="45.77946" lon="6.1113">
        <ele>1414</ele>
        <time>2016-09-24T17:10:15Z</time>
      </trkpt>
      <trkpt lat="45.77951" lon="6.11124">
        <ele>1414</ele>
        <time>2016-09-24T17:12:15Z</time>
      </trkpt>
      <trkpt lat="45.77955" lon="6.11122">
        <ele>1415</ele>
        <time>2016-09-24T17:14:15Z</time>
      </trkpt>
      <trkpt lat="45.77958" lon="6.11122">
        <ele>1415</ele>
        <time>2016-09-24T17:16:15Z</time>
      </trkpt>
      <trkpt lat="45.77958" lon="6.11122">
        <ele>1415</ele>
        <time>2016-09-24T17:18:15Z</time>
      </trkpt>
      <trkpt lat="45.77966" lon="6.11108">
        <ele>1416</ele>
        <time>2016-09-24T17:20:15Z</time>
      </trkpt>
      <trkpt lat="45.77969" lon="6.11103">
        <ele>1416</ele>
        <time>2016-09-24T17:22:15Z</time>
      </trkpt>
      <trkpt lat="45.77969" lon="6.11103">
        <ele>1416</ele>
        <time>2016-09-24T17:24:15Z</time>
      </trkpt>
      <trkpt lat="45.77973" lon="6.11108">
        <ele>1417</ele>
        <time>2016-09-24T17:26:15Z</time>
      </trkpt>
      <trkpt lat="45.77976" lon="6.1111">
        <ele>1418</ele>
        <time>2016-09-24T17:28:15Z</time>
      </trkpt>
      <trkpt lat="45.77979" lon="6.11112">
        <ele>1419</ele>
        <time>2016-09-24T17:30:15Z</time>
      </trkpt>
      <trkpt lat="45.77984" lon="6.11115">
        <ele>1420</ele>
        <time>2016-09-24T17:32:15Z</time>
      </trkpt>
      <trkpt lat="45.77989" lon="6.11117">
        <ele>1421</ele>
        <time>2016-09-24T17:34:15Z</time>
      </trkpt>
      <trkpt lat="45.77991" lon="6.11116">
        <ele>1421</ele>
        <time>2016-09-24T17:36:15Z</time>
      </trkpt>
      <trkpt lat="45.77994" lon="6.11115">
        <ele>1422</ele>
        <time>2016-09-24T17:38:15Z</time>
      </trkpt>
      <trkpt lat="45.77997" lon="6.11113">
        <ele>1422</ele>
        <time>2016-09-24T17:40:15Z</time>
      </trkpt>
      <trkpt lat="45.77999" lon="6.1111">
        <ele>1422</ele>
        <time>2016-09-24T17:42:15Z</time>
      </trkpt>
      <trkpt lat="45.78001" lon="6.11107">
        <ele>1423</ele>
        <time>2016-09-24T17:44:15Z</time>
      </trkpt>
      <trkpt lat="45.78004" lon="6.11101">
        <ele>1423</ele>
        <time>2016-09-24T17:46:15Z</time>
      </trkpt>
      <trkpt lat="45.78007" lon="6.11091">
        <ele>1423</ele>
        <time>2016-09-24T17:48:15Z</time>
      </trkpt>
      <trkpt lat="45.78012" lon="6.11074">
        <ele>1424</ele>
        <time>2016-09-24T17:50:15Z</time>
      </trkpt>
      <trkpt lat="45.78013" lon="6.11067">
        <ele>1424</ele>
        <time>2016-09-24T17:52:15Z</time>
      </trkpt>
      <trkpt lat="45.78015" lon="6.11062">
        <ele>1424</ele>
        <time>2016-09-24T17:54:15Z</time>
      </trkpt>
      <trkpt lat="45.78016" lon="6.11056">
        <ele>1425</ele>
        <time>2016-09-24T17:56:15Z</time>
      </trkpt>
      <trkpt lat="45.7802" lon="6.11048">
        <ele>1426</ele>
        <time>2016-09-24T17:58:15Z</time>
      </trkpt>
      <trkpt lat="45.78029" lon="6.11034">
        <ele>1428</ele>
        <time>2016-09-24T18:00:15Z</time>
      </trkpt>
      <trkpt lat="45.78036" lon="6.11021">
        <ele>1430</ele>
        <time>2016-09-24T18:02:15Z</time>
      </trkpt>
      <trkpt lat="45.7804" lon="6.11011">
        <ele>1432</ele>
        <time>2016-09-24T18:04:15Z</time>
      </trkpt>
      <trkpt lat="45.78043" lon="6.11002">
        <ele>1433</ele>
        <time>2016-09-24T18:06:15Z</time>
      </trkpt>
      <trkpt lat="45.78049" lon="6.1099">
        <ele>1434</ele>
        <time>2016-09-24T18:08:15Z</time>
      </trkpt>
      <trkpt lat="45.78052" lon="6.10985">
        <ele>1435</ele>
        <time>2016-09-24T18:10:15Z</time>
      </trkpt>
      <trkpt lat="45.78058" lon="6.10974">
        <ele>1436</ele>
        <time>2016-09-24T18:12:15Z</time>
      </trkpt>
      <trkpt lat="45.78061" lon="6.10969">
        <ele>1436</ele>
        <time>2016-09-24T18:14:15Z</time>
      </trkpt>
      <trkpt lat="45.78068" lon="6.10961">
        <ele>1438</ele>
        <time>2016-09-24T18:16:15Z</time>
      </trkpt>
      <trkpt lat="45.78075" lon="6.10951">
        <ele>1439</ele>
        <time>2016-09-24T18:18:15Z</time>
      </trkpt>
      <trkpt lat="45.7808" lon="6.10946">
        <ele>1440</ele>
        <time>2016-09-24T18:20:15Z</time>
      </trkpt>
      <trkpt lat="45.78083" lon="6.10944">
        <ele>1440</ele>
        <time>2016-09-24T18:22:15Z</time>
      </trkpt>
      <trkpt lat="45.78087" lon="6.10941">
        <ele>1440</ele>
        <time>2016-09-24T18:24:15Z</time>
      </trkpt>
      <trkpt lat="45.78093" lon="6.1094">
        <ele>1441</ele>
        <time>2016-09-24T18:26:15Z</time>
      </trkpt>
      <trkpt lat="45.781" lon="6.10938">
        <ele>1441</ele>
        <time>2016-09-24T18:28:15Z</time>
      </trkpt>
      <trkpt lat="45.78106" lon="6.10939">
        <ele>1442</ele>
        <time>2016-09-24T18:30:15Z</time>
      </trkpt>
      <trkpt lat="45.7811" lon="6.10941">
        <ele>1443</ele>
        <time>2016-09-24T18:32:15Z</time>
      </trkpt>
      <trkpt lat="45.78116" lon="6.10941">
        <ele>1443</ele>
        <time>2016-09-24T18:34:15Z</time>
      </trkpt>
      <trkpt lat="45.78122" lon="6.10941">
        <ele>1444</ele>
        <time>2016-09-24T18:36:15Z</time>
      </trkpt>
      <trkpt lat="45.78132" lon="6.10943">
        <ele>1445</ele>
        <time>2016-09-24T18:38:15Z</time>
      </trkpt>
      <trkpt lat="45.78138" lon="6.10944">
        <ele>1446</ele>
        <time>2016-09-24T18:40:15Z</time>
      </trkpt>
      <trkpt lat="45.78145" lon="6.10946">
        <ele>1447</ele>
        <time>2016-09-24T18:42:15Z</time>
      </trkpt>
      <trkpt lat="45.78149" lon="6.10949">
        <ele>1447</ele>
        <time>2016-09-24T18:44:15Z</time>
      </trkpt>
      <trkpt lat="45.78155" lon="6.10953">
        <ele>1448</ele>
        <time>2016-09-24T18:46:15Z</time>
      </trkpt>
      <trkpt lat="45.7816" lon="6.10957">
        <ele>1449</ele>
        <time>2016-09-24T18:48:15Z</time>
      </trkpt>
      <trkpt lat="45.78164" lon="6.1096">
        <ele>1449</ele>
        <time>2016-09-24T18:50:15Z</time>
      </trkpt>
      <trkpt lat="45.7817" lon="6.10962">
        <ele>1450</ele>
        <time>2016-09-24T18:52:15Z</time>
      </trkpt>
      <trkpt lat="45.7818" lon="6.10966">
        <ele>1452</ele>
        <time>2016-09-24T18:54:15Z</time>
      </trkpt>
      <trkpt lat="45.78184" lon="6.10968">
        <ele>1453</ele>
        <time>2016-09-24T18:56:15Z</time>
      </trkpt>
      <trkpt lat="45.78191" lon="6.10971">
        <ele>1454</ele>
        <time>2016-09-24T18:58:15Z</time>
      </trkpt>
      <trkpt lat="45.78194" lon="6.10973">
        <ele>1455</ele>
        <time>2016-09-24T19:00:15Z</time>
      </trkpt>
      <trkpt lat="45.78198" lon="6.10975">
        <ele>1455</ele>
        <time>2016-09-24T19:02:15Z</time>
      </trkpt>
      <trkpt lat="45.78201" lon="6.10976">
        <ele>1456</ele>
        <time>2016-09-24T19:04:15Z</time>
      </trkpt>
      <trkpt lat="45.78204" lon="6.10976">
        <ele>1456</ele>
        <time>2016-09-24T19:06:15Z</time>
      </trkpt>
      <trkpt lat="45.78208" lon="6.10976">
        <ele>1457</ele>
        <time>2016-09-24T19:08:15Z</time>
      </trkpt>
      <trkpt lat="45.78212" lon="6.10975">
        <ele>1458</ele>
        <time>2016-09-24T19:10:15Z</time>
      </trkpt>
      <trkpt lat="45.78216" lon="6.10973">
        <ele>1458</ele>
        <time>2016-09-24T19:12:15Z</time>
      </trkpt>
      <trkpt lat="45.78225" lon="6.10968">
        <ele>1459</ele>
        <time>2016-09-24T19:14:15Z</time>
      </trkpt>
      <trkpt lat="45.7823" lon="6.10966">
        <ele>1459</ele>
        <time>2016-09-24T19:16:15Z</time>
      </trkpt>
      <trkpt lat="45.78235" lon="6.10961">
        <ele>1459</ele>
        <time>2016-09-24T19:18:15Z</time>
      </trkpt>
      <trkpt lat="45.78239" lon="6.10958">
        <ele>1459</ele>
        <time>2016-09-24T19:20:15Z</time>
      </trkpt>
      <trkpt lat="45.78244" lon="6.10952">
        <ele>1459</ele>
        <time>2016-09-24T19:22:15Z</time>
      </trkpt>
      <trkpt lat="45.78246" lon="6.10949">
        <ele>1459</ele>
        <time>2016-09-24T19:24:15Z</time>
      </trkpt>
      <trkpt lat="45.7825" lon="6.10945">
        <ele>1459</ele>
        <time>2016-09-24T19:26:15Z</time>
      </trkpt>
      <trkpt lat="45.78251" lon="6.10942">
        <ele>1459</ele>
        <time>2016-09-24T19:28:15Z</time>
      </trkpt>
      <trkpt lat="45.78254" lon="6.10938">
        <ele>1459</ele>
        <time>2016-09-24T19:30:15Z</time>
      </trkpt>
      <trkpt lat="45.78256" lon="6.10934">
        <ele>1459</ele>
        <time>2016-09-24T19:32:15Z</time>
      </trkpt>
      <trkpt lat="45.78258" lon="6.10932">
        <ele>1460</ele>
        <time>2016-09-24T19:34:15Z</time>
      </trkpt>
      <trkpt lat="45.78262" lon="6.10929">
        <ele>1461</ele>
        <time>2016-09-24T19:36:15Z</time>
      </trkpt>
      <trkpt lat="45.78266" lon="6.10926">
        <ele>1461</ele>
        <time>2016-09-24T19:38:15Z</time>
      </trkpt>
      <trkpt lat="45.78274" lon="6.10922">
        <ele>1463</ele>
        <time>2016-09-24T19:40:15Z</time>
      </trkpt>
      <trkpt lat="45.78281" lon="6.10917">
        <ele>1465</ele>
        <time>2016-09-24T19:42:15Z</time>
      </trkpt>
      <trkpt lat="45.78285" lon="6.10914">
        <ele>1466</ele>
        <time>2016-09-24T19:44:15Z</time>
      </trkpt>
      <trkpt lat="45.78295" lon="6.10909">
        <ele>1468</ele>
        <time>2016-09-24T19:46:15Z</time>
      </trkpt>
      <trkpt lat="45.78317" lon="6.10895">
        <ele>1473</ele>
        <time>2016-09-24T19:48:15Z</time>
      </trkpt>
      <trkpt lat="45.78323" lon="6.10892">
        <ele>1475</ele>
        <time>2016-09-24T19:50:15Z</time>
      </trkpt>
      <trkpt lat="45.78331" lon="6.10888">
        <ele>1477</ele>
        <time>2016-09-24T19:52:15Z</time>
      </trkpt>
      <trkpt lat="45.78336" lon="6.10885">
        <ele>1477</ele>
        <time>2016-09-24T19:54:15Z</time>
      </trkpt>
      <trkpt lat="45.78341" lon="6.10883">
        <ele>1477</ele>
        <time>2016-09-24T19:56:15Z</time>
      </trkpt>
      <trkpt lat="45.78345" lon="6.10882">
        <ele>1478</ele>
        <time>2016-09-24T19:58:15Z</time>
      </trkpt>
      <trkpt lat="45.78349" lon="6.10881">
        <ele>1478</ele>
        <time>2016-09-24T20:00:15Z</time>
      </trkpt>
      <trkpt lat="45.78353" lon="6.1088">
        <ele>1478</ele>
        <time>2016-09-24T20:02:15Z</time>
      </trkpt>
      <trkpt lat="45.7836" lon="6.1088">
        <ele>1479</ele>
        <time>2016-09-24T20:04:15Z</time>
      </trkpt>
      <trkpt lat="45.78378" lon="6.10879">
        <ele>1480</ele>
        <time>2016-09-24T20:06:15Z</time>
      </trkpt>
      <trkpt lat="45.78387" lon="6.10879">
        <ele>1481</ele>
        <time>2016-09-24T20:08:15Z</time>
      </trkpt>
      <trkpt lat="45.78391" lon="6.10879">
        <ele>1481</ele>
        <time>2016-09-24T20:10:15Z</time>
      </trkpt>
      <trkpt lat="45.78397" lon="6.10881">
        <ele>1482</ele>
        <time>2016-09-24T20:12:15Z</time>
      </trkpt>
      <trkpt lat="45.78401" lon="6.10882">
        <ele>1482</ele>
        <time>2016-09-24T20:14:15Z</time>
      </trkpt>
      <trkpt lat="45.78405" lon="6.10882">
        <ele>1483</ele>
        <time>2016-09-24T20:16:15Z</time>
      </trkpt>
      <trkpt lat="45.78408" lon="6.10883">
        <ele>1483</ele>
        <time>2016-09-24T20:18:15Z</time>
      </trkpt>
      <trkpt lat="45.78412" lon="6.10882">
        <ele>1483</ele>
        <time>2016-09-24T20:20:15Z</time>
      </trkpt>
      <trkpt lat="45.78414" lon="6.10879">
        <ele>1483</ele>
        <time>2016-09-24T20:22:15Z</time>
      </trkpt>
      <trkpt lat="45.78419" lon="6.10882">
        <ele>1484</ele>
        <time>2016-09-24T20:24:15Z</time>
      </trkpt>
      <trkpt lat="45.78425" lon="6.10882">
        <ele>1486</ele>
        <time>2016-09-24T20:26:15Z</time>
      </trkpt>
      <trkpt lat="45.7843" lon="6.1088">
        <ele>1487</ele>
        <time>2016-09-24T20:28:15Z</time>
      </trkpt>
      <trkpt lat="45.78433" lon="6.10878">
        <ele>1488</ele>
        <time>2016-09-24T20:30:15Z</time>
      </trkpt>
      <trkpt lat="45.7844" lon="6.10873">
        <ele>1489</ele>
        <time>2016-09-24T20:32:15Z</time>
      </trkpt>
      <trkpt lat="45.7845" lon="6.10866">
        <ele>1491</ele>
        <time>2016-09-24T20:34:15Z</time>
      </trkpt>
      <trkpt lat="45.78455" lon="6.10861">
        <ele>1492</ele>
        <time>2016-09-24T20:36:15Z</time>
      </trkpt>
      <trkpt lat="45.78466" lon="6.10848">
        <ele>1495</ele>
        <time>2016-09-24T20:38:15Z</time>
      </trkpt>
      <trkpt lat="45.78471" lon="6.10843">
        <ele>1497</ele>
        <time>2016-09-24T20:40:15Z</time>
      </trkpt>
      <trkpt lat="45.78476" lon="6.10837">
        <ele>1498</ele>
        <time>2016-09-24T20:42:15Z</time>
      </trkpt>
      <trkpt lat="45.7848" lon="6.10833">
        <ele>1500</ele>
        <time>2016-09-24T20:44:15Z</time>
      </trkpt>
      <trkpt lat="45.78488" lon="6.10822">
        <ele>1501</ele>
        <time>2016-09-24T20:46:15Z</time>
      </trkpt>
      <trkpt lat="45.78495" lon="6.10807">
        <ele>1501</ele>
        <time>2016-09-24T20:48:15Z</time>
      </trkpt>
      <trkpt lat="45.78502" lon="6.10796">
        <ele>1502</ele>
        <time>2016-09-24T20:50:15Z</time>
      </trkpt>
      <trkpt lat="45.78508" lon="6.10786">
        <ele>1503</ele>
        <time>2016-09-24T20:52:15Z</time>
      </trkpt>
      <trkpt lat="45.78517" lon="6.1077">
        <ele>1505</ele>
        <time>2016-09-24T20:54:15Z</time>
      </trkpt>
      <trkpt lat="45.78521" lon="6.1076">
        <ele>1505</ele>
        <time>2016-09-24T20:56:15Z</time>
      </trkpt>
      <trkpt lat="45.78527" lon="6.10745">
        <ele>1506</ele>
        <time>2016-09-24T20:58:15Z</time>
      </trkpt>
      <trkpt lat="45.78532" lon="6.1073">
        <ele>1506</ele>
        <time>2016-09-24T21:00:15Z</time>
      </trkpt>
      <trkpt lat="45.78535" lon="6.1072">
        <ele>1506</ele>
        <time>2016-09-24T21:02:15Z</time>
      </trkpt>
      <trkpt lat="45.78537" lon="6.10714">
        <ele>1506</ele>
        <time>2016-09-24T21:04:15Z</time>
      </trkpt>
      <trkpt lat="45.78541" lon="6.10708">
        <ele>1507</ele>
        <time>2016-09-24T21:06:15Z</time>
      </trkpt>
      <trkpt lat="45.78544" lon="6.10702">
        <ele>1508</ele>
        <time>2016-09-24T21:08:15Z</time>
      </trkpt>
      <trkpt lat="45.78559" lon="6.10682">
        <ele>1512</ele>
        <time>2016-09-24T21:10:15Z</time>
      </trkpt>
      <trkpt lat="45.78577" lon="6.10662">
        <ele>1517</ele>
        <time>2016-09-24T21:12:15Z</time>
      </trkpt>
      <trkpt lat="45.78588" lon="6.1065">
        <ele>1518</ele>
        <time>2016-09-24T21:14:15Z</time>
      </trkpt>
      <trkpt lat="45.78595" lon="6.10642">
        <ele>1517</ele>
        <time>2016-09-24T21:16:15Z</time>
      </trkpt>
      <trkpt lat="45.78601" lon="6.10639">
        <ele>1518</ele>
        <time>2016-09-24T21:18:15Z</time>
      </trkpt>
      <trkpt lat="45.7861" lon="6.10635">
        <ele>1519</ele>
        <time>2016-09-24T21:20:15Z</time>
      </trkpt>
      <trkpt lat="45.78624" lon="6.1063">
        <ele>1522</ele>
        <time>2016-09-24T21:22:15Z</time>
      </trkpt>
      <trkpt lat="45.78642" lon="6.10625">
        <ele>1525</ele>
        <time>2016-09-24T21:24:15Z</time>
      </trkpt>
      <trkpt lat="45.78653" lon="6.10622">
        <ele>1528</ele>
        <time>2016-09-24T21:26:15Z</time>
      </trkpt>
      <trkpt lat="45.78669" lon="6.1062">
        <ele>1532</ele>
        <time>2016-09-24T21:28:15Z</time>
      </trkpt>
      <trkpt lat="45.78705" lon="6.10618">
        <ele>1536</ele>
        <time>2016-09-24T21:30:15Z</time>
      </trkpt>
      <trkpt lat="45.78743" lon="6.10611">
        <ele>1540</ele>
        <time>2016-09-24T21:32:15Z</time>
      </trkpt>
      <trkpt lat="45.78765" lon="6.10607">
        <ele>1543</ele>
        <time>2016-09-24T21:34:15Z</time>
      </trkpt>
      <trkpt lat="45.7877" lon="6.10606">
        <ele>1544</ele>
        <time>2016-09-24T21:36:15Z</time>
      </trkpt>
      <trkpt lat="45.78776" lon="6.10605">
        <ele>1545</ele>
        <time>2016-09-24T21:38:15Z</time>
      </trkpt>
      <trkpt lat="45.7878" lon="6.10605">
        <ele>1545</ele>
        <time>2016-09-24T21:40:15Z</time>
      </trkpt>
      <trkpt lat="45.78785" lon="6.10605">
        <ele>1546</ele>
        <time>2016-09-24T21:42:15Z</time>
      </trkpt>
      <trkpt lat="45.78803" lon="6.10606">
        <ele>1550</ele>
        <time>2016-09-24T21:44:15Z</time>
      </trkpt>
      <trkpt lat="45.78814" lon="6.10605">
        <ele>1552</ele>
        <time>2016-09-24T21:46:15Z</time>
      </trkpt>
      <trkpt lat="45.7884" lon="6.106">
        <ele>1557</ele>
        <time>2016-09-24T21:48:15Z</time>
      </trkpt>
      <trkpt lat="45.78855" lon="6.10597">
        <ele>1558</ele>
        <time>2016-09-24T21:50:15Z</time>
      </trkpt>
      <trkpt lat="45.78865" lon="6.10595">
        <ele>1560</ele>
        <time>2016-09-24T21:52:15Z</time>
      </trkpt>
      <trkpt lat="45.78871" lon="6.10594">
        <ele>1561</ele>
        <time>2016-09-24T21:54:15Z</time>
      </trkpt>
      <trkpt lat="45.78876" lon="6.10593">
        <ele>1561</ele>
        <time>2016-09-24T21:56:15Z</time>
      </trkpt>
      <trkpt lat="45.78883" lon="6.10593">
        <ele>1563</ele>
        <time>2016-09-24T21:58:15Z</time>
      </trkpt>
      <trkpt lat="45.78887" lon="6.10594">
        <ele>1563</ele>
        <time>2016-09-24T22:00:15Z</time>
      </trkpt>
      <trkpt lat="45.78891" lon="6.10596">
        <ele>1564</ele>
        <time>2016-09-24T22:02:15Z</time>
      </trkpt>
      <trkpt lat="45.78894" lon="6.10598">
        <ele>1565</ele>
        <time>2016-09-24T22:04:15Z</time>
      </trkpt>
      <trkpt lat="45.78897" lon="6.106">
        <ele>1565</ele>
        <time>2016-09-24T22:06:15Z</time>
      </trkpt>
      <trkpt lat="45.78901" lon="6.10603">
        <ele>1566</ele>
        <time>2016-09-24T22:08:15Z</time>
      </trkpt>
      <trkpt lat="45.78904" lon="6.10605">
        <ele>1566</ele>
        <time>2016-09-24T22:10:15Z</time>
      </trkpt>
      <trkpt lat="45.78908" lon="6.10607">
        <ele>1567</ele>
        <time>2016-09-24T22:12:15Z</time>
      </trkpt>
      <trkpt lat="45.78912" lon="6.10608">
        <ele>1567</ele>
        <time>2016-09-24T22:14:15Z</time>
      </trkpt>
      <trkpt lat="45.78915" lon="6.10609">
        <ele>1568</ele>
        <time>2016-09-24T22:16:15Z</time>
      </trkpt>
      <trkpt lat="45.78919" lon="6.10609">
        <ele>1568</ele>
        <time>2016-09-24T22:18:15Z</time>
      </trkpt>
      <trkpt lat="45.78921" lon="6.10608">
        <ele>1568</ele>
        <time>2016-09-24T22:20:15Z</time>
      </trkpt>
      <trkpt lat="45.78924" lon="6.10607">
        <ele>1569</ele>
        <time>2016-09-24T22:22:15Z</time>
      </trkpt>
      <trkpt lat="45.78928" lon="6.10604">
        <ele>1569</ele>
        <time>2016-09-24T22:24:15Z</time>
      </trkpt>
      <trkpt lat="45.78933" lon="6.10596">
        <ele>1570</ele>
        <time>2016-09-24T22:26:15Z</time>
      </trkpt>
      <trkpt lat="45.78938" lon="6.1059">
        <ele>1570</ele>
        <time>2016-09-24T22:28:15Z</time>
      </trkpt>
      <trkpt lat="45.78943" lon="6.10582">
        <ele>1570</ele>
        <time>2016-09-24T22:30:15Z</time>
      </trkpt>
      <trkpt lat="45.78948" lon="6.10576">
        <ele>1570</ele>
        <time>2016-09-24T22:32:15Z</time>
      </trkpt>
      <trkpt lat="45.78951" lon="6.10572">
        <ele>1570</ele>
        <time>2016-09-24T22:34:15Z</time>
      </trkpt>
      <trkpt lat="45.78954" lon="6.10569">
        <ele>1570</ele>
        <time>2016-09-24T22:36:15Z</time>
      </trkpt>
      <trkpt lat="45.78962" lon="6.10564">
        <ele>1571</ele>
        <time>2016-09-24T22:38:15Z</time>
      </trkpt>
      <trkpt lat="45.78976" lon="6.10556">
        <ele>1572</ele>
        <time>2016-09-24T22:40:15Z</time>
      </trkpt>
      <trkpt lat="45.7901" lon="6.10533">
        <ele>1574</ele>
        <time>2016-09-24T22:42:15Z</time>
      </trkpt>
      <trkpt lat="45.79033" lon="6.10517">
        <ele>1575</ele>
        <time>2016-09-24T22:44:15Z</time>
      </trkpt>
      <trkpt lat="45.79048" lon="6.10506">
        <ele>1576</ele>
        <time>2016-09-24T22:46:15Z</time>
      </trkpt>
      <trkpt lat="45.7906" lon="6.10499">
        <ele>1577</ele>
        <time>2016-09-24T22:48:15Z</time>
      </trkpt>
      <trkpt lat="45.79065" lon="6.10496">
        <ele>1578</ele>
        <time>2016-09-24T22:50:15Z</time>
      </trkpt>
      <trkpt lat="45.79068" lon="6.10493">
        <ele>1579</ele>
        <time>2016-09-24T22:52:15Z</time>
      </trkpt>
      <trkpt lat="45.79072" lon="6.10492">
        <ele>1579</ele>
        <time>2016-09-24T22:54:15Z</time>
      </trkpt>
      <trkpt lat="45.79075" lon="6.1049">
        <ele>1580</ele>
        <time>2016-09-24T22:56:15Z</time>
      </trkpt>
      <trkpt lat="45.79078" lon="6.10489">
        <ele>1580</ele>
        <time>2016-09-24T22:58:15Z</time>
      </trkpt>
      <trkpt lat="45.79081" lon="6.10488">
        <ele>1581</ele>
        <time>2016-09-24T23:00:15Z</time>
      </trkpt>
      <trkpt lat="45.7909" lon="6.10486">
        <ele>1582</ele>
        <time>2016-09-24T23:02:15Z</time>
      </trkpt>
      <trkpt lat="45.79112" lon="6.10482">
        <ele>1584</ele>
        <time>2016-09-24T23:04:15Z</time>
      </trkpt>
      <trkpt lat="45.7913" lon="6.10479">
        <ele>1586</ele>
        <time>2016-09-24T23:06:15Z</time>
      </trkpt>
      <trkpt lat="45.7915" lon="6.10476">
        <ele>1589</ele>
        <time>2016-09-24T23:08:15Z</time>
      </trkpt>
      <trkpt lat="45.79163" lon="6.10475">
        <ele>1590</ele>
        <time>2016-09-24T23:10:15Z</time>
      </trkpt>
      <trkpt lat="45.79173" lon="6.10472">
        <ele>1591</ele>
        <time>2016-09-24T23:12:15Z</time>
      </trkpt>
      <trkpt lat="45.79182" lon="6.10469">
        <ele>1592</ele>
        <time>2016-09-24T23:14:15Z</time>
      </trkpt>
      <trkpt lat="45.7919" lon="6.10464">
        <ele>1593</ele>
        <time>2016-09-24T23:16:15Z</time>
      </trkpt>
      <trkpt lat="45.79199" lon="6.10459">
        <ele>1594</ele>
        <time>2016-09-24T23:18:15Z</time>
      </trkpt>
      <trkpt lat="45.79205" lon="6.10455">
        <ele>1595</ele>
        <time>2016-09-24T23:20:15Z</time>
      </trkpt>
      <trkpt lat="45.7921" lon="6.10452">
        <ele>1596</ele>
        <time>2016-09-24T23:22:15Z</time>
      </trkpt>
      <trkpt lat="45.79213" lon="6.1045">
        <ele>1597</ele>
        <time>2016-09-24T23:24:15Z</time>
      </trkpt>
      <trkpt lat="45.79216" lon="6.10449">
        <ele>1597</ele>
        <time>2016-09-24T23:26:15Z</time>
      </trkpt>
      <trkpt lat="45.79229" lon="6.10448">
        <ele>1599</ele>
        <time>2016-09-24T23:28:15Z</time>
      </trkpt>
      <trkpt lat="45.79243" lon="6.10448">
        <ele>1600</ele>
        <time>2016-09-24T23:30:15Z</time>
      </trkpt>
      <trkpt lat="45.79256" lon="6.10448">
        <ele>1601</ele>
        <time>2016-09-24T23:32:15Z</time>
      </trkpt>
      <trkpt lat="45.79266" lon="6.10448">
        <ele>1602</ele>
        <time>2016-09-24T23:34:15Z</time>
      </trkpt>
      <trkpt lat="45.79271" lon="6.10448">
        <ele>1602</ele>
        <time>2016-09-24T23:36:15Z</time>
      </trkpt>
      <trkpt lat="45.79276" lon="6.10446">
        <ele>1603</ele>
        <time>2016-09-24T23:38:15Z</time>
      </trkpt>
      <trkpt lat="45.79282" lon="6.10444">
        <ele>1604</ele>
        <time>2016-09-24T23:40:15Z</time>
      </trkpt>
      <trkpt lat="45.79289" lon="6.1044">
        <ele>1605</ele>
        <time>2016-09-24T23:42:15Z</time>
      </trkpt>
      <trkpt lat="45.7931" lon="6.10428">
        <ele>1608</ele>
        <time>2016-09-24T23:44:15Z</time>
      </trkpt>
      <trkpt lat="45.79326" lon="6.10417">
        <ele>1611</ele>
        <time>2016-09-24T23:46:15Z</time>
      </trkpt>
      <trkpt lat="45.7934" lon="6.10409">
        <ele>1614</ele>
        <time>2016-09-24T23:48:15Z</time>
      </trkpt>
      <trkpt lat="45.79345" lon="6.10407">
        <ele>1615</ele>
        <time>2016-09-24T23:50:15Z</time>
      </trkpt>
      <trkpt lat="45.79347" lon="6.10406">
        <ele>1615</ele>
        <time>2016-09-24T23:52:15Z</time>
      </trkpt>
      <trkpt lat="45.7935" lon="6.10406">
        <ele>1615</ele>
        <time>2016-09-24T23:54:15Z</time>
      </trkpt>
      <trkpt lat="45.79356" lon="6.10406">
        <ele>1616</ele>
        <time>2016-09-24T23:56:15Z</time>
      </trkpt>
      <trkpt lat="45.79368" lon="6.10405">
        <ele>1617</ele>
        <time>2016-09-24T23:58:15Z</time>
      </trkpt>
      <trkpt lat="45.79382" lon="6.10406">
        <ele>1619</ele>
        <time>2016-09-25T00:00:15Z</time>
      </trkpt>
      <trkpt lat="45.79389" lon="6.10407">
        <ele>1619</ele>
        <time>2016-09-25T00:02:15Z</time>
      </trkpt>
      <trkpt lat="45.79392" lon="6.10408">
        <ele>1619</ele>
        <time>2016-09-25T00:04:15Z</time>
      </trkpt>
      <trkpt lat="45.79395" lon="6.10407">
        <ele>1620</ele>
        <time>2016-09-25T00:06:15Z</time>
      </trkpt>
      <trkpt lat="45.79402" lon="6.10405">
        <ele>1621</ele>
        <time>2016-09-25T00:08:15Z</time>
      </trkpt>
      <trkpt lat="45.79402" lon="6.10405">
        <ele>1621</ele>
        <time>2016-09-25T00:10:15Z</time>
      </trkpt>
      <trkpt lat="45.79395" lon="6.104">
        <ele>1621</ele>
        <time>2016-09-25T00:12:15Z</time>
      </trkpt>
      <trkpt lat="45.79392" lon="6.10397">
        <ele>1621</ele>
        <time>2016-09-25T00:14:15Z</time>
      </trkpt>
      <trkpt lat="45.7939" lon="6.10395">
        <ele>1622</ele>
        <time>2016-09-25T00:16:15Z</time>
      </trkpt>
      <trkpt lat="45.79388" lon="6.10393">
        <ele>1622</ele>
        <time>2016-09-25T00:18:15Z</time>
      </trkpt>
      <trkpt lat="45.79386" lon="6.10391">
        <ele>1622</ele>
        <time>2016-09-25T00:20:15Z</time>
      </trkpt>
      <trkpt lat="45.79385" lon="6.10388">
        <ele>1622</ele>
        <time>2016-09-25T00:22:15Z</time>
      </trkpt>
      <trkpt lat="45.79383" lon="6.10386">
        <ele>1622</ele>
        <time>2016-09-25T00:24:15Z</time>
      </trkpt>
      <trkpt lat="45.79381" lon="6.10381">
        <ele>1623</ele>
        <time>2016-09-25T00:26:15Z</time>
      </trkpt>
      <trkpt lat="45.79372" lon="6.10362">
        <ele>1625</ele>
        <time>2016-09-25T00:28:15Z</time>
      </trkpt>
      <trkpt lat="45.79365" lon="6.10349">
        <ele>1627</ele>
        <time>2016-09-25T00:30:15Z</time>
      </trkpt>
      <trkpt lat="45.79357" lon="6.10338">
        <ele>1628</ele>
        <time>2016-09-25T00:32:15Z</time>
      </trkpt>
      <trkpt lat="45.79336" lon="6.10316">
        <ele>1628</ele>
        <time>2016-09-25T00:34:15Z</time>
      </trkpt>
      <trkpt lat="45.79328" lon="6.10309">
        <ele>1629</ele>
        <time>2016-09-25T00:36:15Z</time>
      </trkpt>
      <trkpt lat="45.79317" lon="6.10299">
        <ele>1630</ele>
        <time>2016-09-25T00:38:15Z</time>
      </trkpt>
      <trkpt lat="45.79304" lon="6.10287">
        <ele>1631</ele>
        <time>2016-09-25T00:40:15Z</time>
      </trkpt>
      <trkpt lat="45.79292" lon="6.10276">
        <ele>1632</ele>
        <time>2016-09-25T00:42:15Z</time>
      </trkpt>
      <trkpt lat="45.7928" lon="6.10264">
        <ele>1633</ele>
        <time>2016-09-25T00:44:15Z</time>
      </trkpt>
      <trkpt lat="45.79268" lon="6.10253">
        <ele>1633</ele>
        <time>2016-09-25T00:46:15Z</time>
      </trkpt>
      <trkpt lat="45.79259" lon="6.10243">
        <ele>1634</ele>
        <time>2016-09-25T00:48:15Z</time>
      </trkpt>
      <trkpt lat="45.79253" lon="6.10237">
        <ele>1634</ele>
        <time>2016-09-25T00:50:15Z</time>
      </trkpt>
      <trkpt lat="45.7925" lon="6.10233">
        <ele>1634</ele>
        <time>2016-09-25T00:52:15Z</time>
      </trkpt>
      <trkpt lat="45.79249" lon="6.1023">
        <ele>1634</ele>
        <time>2016-09-25T00:54:15Z</time>
      </trkpt>
      <trkpt lat="45.79248" lon="6.10222">
        <ele>1634</ele>
        <time>2016-09-25T00:56:15Z</time>
      </trkpt>
      <trkpt lat="45.79248" lon="6.10219">
        <ele>1635</ele>
        <time>2016-09-25T00:58:15Z</time>
      </trkpt>
      <trkpt lat="45.7925" lon="6.10212">
        <ele>1636</ele>
        <time>2016-09-25T01:00:15Z</time>
      </trkpt>
      <trkpt lat="45.79252" lon="6.10206">
        <ele>1636</ele>
        <time>2016-09-25T01:02:15Z</time>
      </trkpt>
      <trkpt lat="45.79253" lon="6.10205">
        <ele>1637</ele>
        <time>2016-09-25T01:04:15Z</time>
      </trkpt>
      <trkpt lat="45.79254" lon="6.10204">
        <ele>1637</ele>
        <time>2016-09-25T01:06:15Z</time>
      </trkpt>
      <trkpt lat="45.79256" lon="6.10203">
        <ele>1637</ele>
        <time>2016-09-25T01:08:15Z</time>
      </trkpt>
      <trkpt lat="45.79259" lon="6.10204">
        <ele>1637</ele>
        <time>2016-09-25T01:10:15Z</time>
      </trkpt>
      <trkpt lat="45.79261" lon="6.10205">
        <ele>1637</ele>
        <time>2016-09-25T01:12:15Z</time>
      </trkpt>
      <trkpt lat="45.7927" lon="6.10208">
        <ele>1638</ele>
        <time>2016-09-25T01:14:15Z</time>
      </trkpt>
      <trkpt lat="45.79287" lon="6.10214">
        <ele>1638</ele>
        <time>2016-09-25T01:16:15Z</time>
      </trkpt>
      <trkpt lat="45.793" lon="6.10219">
        <ele>1639</ele>
        <time>2016-09-25T01:18:15Z</time>
      </trkpt>
      <trkpt lat="45.7931" lon="6.10222">
        <ele>1640</ele>
        <time>2016-09-25T01:20:15Z</time>
      </trkpt>
      <trkpt lat="45.79317" lon="6.10226">
        <ele>1640</ele>
        <time>2016-09-25T01:22:15Z</time>
      </trkpt>
      <trkpt lat="45.79324" lon="6.10227">
        <ele>1641</ele>
        <time>2016-09-25T01:24:15Z</time>
      </trkpt>
      <trkpt lat="45.7933" lon="6.10227">
        <ele>1641</ele>
        <time>2016-09-25T01:26:15Z</time>
      </trkpt>
      <trkpt lat="45.79335" lon="6.10227">
        <ele>1641</ele>
        <time>2016-09-25T01:28:15Z</time>
      </trkpt>
      <trkpt lat="45.79343" lon="6.10226">
        <ele>1642</ele>
        <time>2016-09-25T01:30:15Z</time>
      </trkpt>
      <trkpt lat="45.79356" lon="6.10224">
        <ele>1643</ele>
        <time>2016-09-25T01:32:15Z</time>
      </trkpt>
      <trkpt lat="45.79358" lon="6.10224">
        <ele>1643</ele>
        <time>2016-09-25T01:34:15Z</time>
      </trkpt>
      <trkpt lat="45.79358" lon="6.10224">
        <ele>1643</ele>
        <time>2016-09-25T01:36:15Z</time>
      </trkpt>
      <trkpt lat="45.7937" lon="6.10221">
        <ele>1643</ele>
        <time>2016-09-25T01:38:15Z</time>
      </trkpt>
      <trkpt lat="45.79382" lon="6.10221">
        <ele>1644</ele>
        <time>2016-09-25T01:40:15Z</time>
      </trkpt>
      <trkpt lat="45.79393" lon="6.10224">
        <ele>1644</ele>
        <time>2016-09-25T01:42:15Z</time>
      </trkpt>
      <trkpt lat="45.79401" lon="6.10227">
        <ele>1645</ele>
        <time>2016-09-25T01:44:15Z</time>
      </trkpt>
      <trkpt lat="45.79407" lon="6.1023">
        <ele>1645</ele>
        <time>2016-09-25T01:46:15Z</time>
      </trkpt>
      <trkpt lat="45.79414" lon="6.10235">
        <ele>1645</ele>
        <time>2016-09-25T01:48:15Z</time>
      </trkpt>
      <trkpt lat="45.79414" lon="6.10235">
        <ele>1645</ele>
        <time>2016-09-25T01:50:15Z</time>
      </trkpt>
      <trkpt lat="45.79425" lon="6.10234">
        <ele>1646</ele>
        <time>2016-09-25T01:52:15Z</time>
      </trkpt>
      <trkpt lat="45.79431" lon="6.10234">
        <ele>1647</ele>
        <time>2016-09-25T01:54:15Z</time>
      </trkpt>
      <trkpt lat="45.79437" lon="6.10235">
        <ele>1648</ele>
        <time>2016-09-25T01:56:15Z</time>
      </trkpt>
      <trkpt lat="45.7944" lon="6.10236">
        <ele>1648</ele>
        <time>2016-09-25T01:58:15Z</time>
      </trkpt>
      <trkpt lat="45.79442" lon="6.10236">
        <ele>1648</ele>
        <time>2016-09-25T02:00:15Z</time>
      </trkpt>
      <trkpt lat="45.79445" lon="6.10237">
        <ele>1649</ele>
        <time>2016-09-25T02:02:15Z</time>
      </trkpt>
      <trkpt lat="45.79455" lon="6.1024">
        <ele>1650</ele>
        <time>2016-09-25T02:04:15Z</time>
      </trkpt>
      <trkpt lat="45.79461" lon="6.10242">
        <ele>1651</ele>
        <time>2016-09-25T02:06:15Z</time>
      </trkpt>
      <trkpt lat="45.79468" lon="6.10243">
        <ele>1652</ele>
        <time>2016-09-25T02:08:15Z</time>
      </trkpt>
      <trkpt lat="45.79476" lon="6.10245">
        <ele>1653</ele>
        <time>2016-09-25T02:10:15Z</time>
      </trkpt>
      <trkpt lat="45.79489" lon="6.10248">
        <ele>1654</ele>
        <time>2016-09-25T02:12:15Z</time>
      </trkpt>
      <trkpt lat="45.79492" lon="6.10248">
        <ele>1655</ele>
        <time>2016-09-25T02:14:15Z</time>
      </trkpt>
      <trkpt lat="45.79494" lon="6.10249">
        <ele>1655</ele>
        <time>2016-09-25T02:16:15Z</time>
      </trkpt>
      <trkpt lat="45.79496" lon="6.10249">
        <ele>1655</ele>
        <time>2016-09-25T02:18:15Z</time>
      </trkpt>
      <trkpt lat="45.79497" lon="6.1025">
        <ele>1656</ele>
        <time>2016-09-25T02:20:15Z</time>
      </trkpt>
      <trkpt lat="45.79498" lon="6.10251">
        <ele>1656</ele>
        <time>2016-09-25T02:22:15Z</time>
      </trkpt>
      <trkpt lat="45.79499" lon="6.10253">
        <ele>1655</ele>
        <time>2016-09-25T02:24:15Z</time>
      </trkpt>
      <trkpt lat="45.795" lon="6.10255">
        <ele>1655</ele>
        <time>2016-09-25T02:26:15Z</time>
      </trkpt>
      <trkpt lat="45.79502" lon="6.10256">
        <ele>1655</ele>
        <time>2016-09-25T02:28:15Z</time>
      </trkpt>
      <trkpt lat="45.79503" lon="6.10257">
        <ele>1655</ele>
        <time>2016-09-25T02:30:15Z</time>
      </trkpt>
      <trkpt lat="45.79505" lon="6.10259">
        <ele>1655</ele>
        <time>2016-09-25T02:32:15Z</time>
      </trkpt>
      <trkpt lat="45.7951" lon="6.10261">
        <ele>1656</ele>
        <time>2016-09-25T02:34:15Z</time>
      </trkpt>
      <trkpt lat="45.79514" lon="6.10264">
        <ele>1656</ele>
        <time>2016-09-25T02:36:15Z</time>
      </trkpt>
      <trkpt lat="45.7952" lon="6.10267">
        <ele>1656</ele>
        <time>2016-09-25T02:38:15Z</time>
      </trkpt>
      <trkpt lat="45.79524" lon="6.1027">
        <ele>1656</ele>
        <time>2016-09-25T02:40:15Z</time>
      </trkpt>
      <trkpt lat="45.79535" lon="6.10274">
        <ele>1657</ele>
        <time>2016-09-25T02:42:15Z</time>
      </trkpt>
      <trkpt lat="45.79539" lon="6.10276">
        <ele>1658</ele>
        <time>2016-09-25T02:44:15Z</time>
      </trkpt>
      <trkpt lat="45.79542" lon="6.10278">
        <ele>1658</ele>
        <time>2016-09-25T02:46:15Z</time>
      </trkpt>
      <trkpt lat="45.79545" lon="6.10279">
        <ele>1659</ele>
        <time>2016-09-25T02:48:15Z</time>
      </trkpt>
      <trkpt lat="45.79547" lon="6.1028">
        <ele>1659</ele>
        <time>2016-09-25T02:50:15Z</time>
      </trkpt>
      <trkpt lat="45.7955" lon="6.10281">
        <ele>1659</ele>
        <time>2016-09-25T02:52:15Z</time>
      </trkpt>
      <trkpt lat="45.79552" lon="6.10282">
        <ele>1659</ele>
        <time>2016-09-25T02:54:15Z</time>
      </trkpt>
      <trkpt lat="45.79555" lon="6.10283">
        <ele>1660</ele>
        <time>2016-09-25T02:56:15Z</time>
      </trkpt>
      <trkpt lat="45.79557" lon="6.10284">
        <ele>1660</ele>
        <time>2016-09-25T02:58:15Z</time>
      </trkpt>
      <trkpt lat="45.7956" lon="6.10285">
        <ele>1661</ele>
        <time>2016-09-25T03:00:15Z</time>
      </trkpt>
      <trkpt lat="45.79562" lon="6.10286">
        <ele>1661</ele>
        <time>2016-09-25T03:02:15Z</time>
      </trkpt>
      <trkpt lat="45.79565" lon="6.10288">
        <ele>1661</ele>
        <time>2016-09-25T03:04:15Z</time>
      </trkpt>
      <trkpt lat="45.79572" lon="6.10291">
        <ele>1662</ele>
        <time>2016-09-25T03:06:15Z</time>
      </trkpt>
      <trkpt lat="45.79581" lon="6.10297">
        <ele>1664</ele>
        <time>2016-09-25T03:08:15Z</time>
      </trkpt>
      <trkpt lat="45.79583" lon="6.103">
        <ele>1664</ele>
        <time>2016-09-25T03:10:15Z</time>
      </trkpt>
      <trkpt lat="45.79588" lon="6.10306">
        <ele>1664</ele>
        <time>2016-09-25T03:12:15Z</time>
      </trkpt>
      <trkpt lat="45.79592" lon="6.1031">
        <ele>1665</ele>
        <time>2016-09-25T03:14:15Z</time>
      </trkpt>
      <trkpt lat="45.79594" lon="6.10312">
        <ele>1665</ele>
        <time>2016-09-25T03:16:15Z</time>
      </trkpt>
      <trkpt lat="45.79597" lon="6.10313">
        <ele>1665</ele>
        <time>2016-09-25T03:18:15Z</time>
      </trkpt>
      <trkpt lat="45.79602" lon="6.10315">
        <ele>1666</ele>
        <time>2016-09-25T03:20:15Z</time>
      </trkpt>
      <trkpt lat="45.79608" lon="6.10316">
        <ele>1667</ele>
        <time>2016-09-25T03:22:15Z</time>
      </trkpt>
      <trkpt lat="45.79613" lon="6.10319">
        <ele>1667</ele>
        <time>2016-09-25T03:24:15Z</time>
      </trkpt>
      <trkpt lat="45.7962" lon="6.10323">
        <ele>1668</ele>
        <time>2016-09-25T03:26:15Z</time>
      </trkpt>
      <trkpt lat="45.79625" lon="6.10327">
        <ele>1669</ele>
        <time>2016-09-25T03:28:15Z</time>
      </trkpt>
      <trkpt lat="45.79638" lon="6.10336">
        <ele>1672</ele>
        <time>2016-09-25T03:30:15Z</time>
      </trkpt>
      <trkpt lat="45.79655" lon="6.10347">
        <ele>1676</ele>
        <time>2016-09-25T03:32:15Z</time>
      </trkpt>
      <trkpt lat="45.79662" lon="6.10353">
        <ele>1678</ele>
        <time>2016-09-25T03:34:15Z</time>
      </trkpt>
      <trkpt lat="45.79667" lon="6.10358">
        <ele>1680</ele>
        <time>2016-09-25T03:36:15Z</time>
      </trkpt>
      <trkpt lat="45.79673" lon="6.10364">
        <ele>1679</ele>
        <time>2016-09-25T03:38:15Z</time>
      </trkpt>
      <trkpt lat="45.79679" lon="6.10372">
        <ele>1679</ele>
        <time>2016-09-25T03:40:15Z</time>
      </trkpt>
      <trkpt lat="45.79683" lon="6.1038">
        <ele>1679</ele>
        <time>2016-09-25T03:42:15Z</time>
      </trkpt>
      <trkpt lat="45.79688" lon="6.10386">
        <ele>1679</ele>
        <time>2016-09-25T03:44:15Z</time>
      </trkpt>
      <trkpt lat="45.79694" lon="6.10396">
        <ele>1679</ele>
        <time>2016-09-25T03:46:15Z</time>
      </trkpt>
      <trkpt lat="45.79699" lon="6.10403">
        <ele>1679</ele>
        <time>2016-09-25T03:48:15Z</time>
      </trkpt>
      <trkpt lat="45.79702" lon="6.10407">
        <ele>1679</ele>
        <time>2016-09-25T03:50:15Z</time>
      </trkpt>
      <trkpt lat="45.79703" lon="6.1041">
        <ele>1679</ele>
        <time>2016-09-25T03:52:15Z</time>
      </trkpt>
      <trkpt lat="45.79705" lon="6.10417">
        <ele>1680</ele>
        <time>2016-09-25T03:54:15Z</time>
      </trkpt>
      <trkpt lat="45.79707" lon="6.10421">
        <ele>1679</ele>
        <time>2016-09-25T03:56:15Z</time>
      </trkpt>
      <trkpt lat="45.79709" lon="6.10424">
        <ele>1679</ele>
        <time>2016-09-25T03:58:15Z</time>
      </trkpt>
      <trkpt lat="45.79712" lon="6.1043">
        <ele>1679</ele>
        <time>2016-09-25T04:00:15Z</time>
      </trkpt>
      <trkpt lat="45.79715" lon="6.10436">
        <ele>1679</ele>
        <time>2016-09-25T04:02:15Z</time>
      </trkpt>
      <trkpt lat="45.79716" lon="6.10441">
        <ele>1679</ele>
        <time>2016-09-25T04:04:15Z</time>
      </trkpt>
      <trkpt lat="45.79717" lon="6.10446">
        <ele>1679</ele>
        <time>2016-09-25T04:06:15Z</time>
      </trkpt>
      <trkpt lat="45.79718" lon="6.1045">
        <ele>1679</ele>
        <time>2016-09-25T04:08:15Z</time>
      </trkpt>
      <trkpt lat="45.79719" lon="6.10454">
        <ele>1679</ele>
        <time>2016-09-25T04:10:15Z</time>
      </trkpt>
      <trkpt lat="45.79719" lon="6.10457">
        <ele>1679</ele>
        <time>2016-09-25T04:12:15Z</time>
      </trkpt>
      <trkpt lat="45.79719" lon="6.10457">
        <ele>1679</ele>
        <time>2016-09-25T04:14:15Z</time>
      </trkpt>
    </trkseg>
  </trk>
</gpx>